AFR934 LFPG-FMMI
Flight info
| Callsign | AFR934 |
|---|---|
| Flight time | 10h 17m |
| Altitude | 33000 |
| Route | OKASI DCT OKEKO DCT MOU DCT MADIV DCT MOKIP DCT TUFTA DCT KOGAS DCT MEDAM DCT NITAM DCT MOGBO DCT ALAXI DCT RUTOM DCT SALUN/N0487F350 N705 BOPIX N710 TAKRI P751 LXR M999 JDW G650 RASKA/N0497F360 G650 ULONI/N0499F350 UV790 SB UR775 ALNAB/N0493F370 UR775 UNPAR/N0496F360 UR775 LOTER/N0489F380 UR775 BERIL/N0493F370 UR775 MG UA401 TN TN1V |
| Aircraft | B77W/H-SDE1E2E3FGHIJ2J3J4J5M1RWXY/LB1D1 |
Departure
| Time | 2026-04-26 23:14 |
|---|---|
| Airport | Charles de Gaulle International Airport (LFPG) |
Arrival
| Time | 2026-04-27 09:31 |
|---|---|
| Airport | Ivato International Airport (FMMI) |
| Time | Latitude | Longitude | Altitude | Speed | Heading |
|---|---|---|---|---|---|
| 2026-04-26 22:19 | 49.00145 | 2.58117 | 336 ft | 0 kts | 356° |
| 2026-04-26 22:55 | 49.00131 | 2.58117 | 336 ft | 2 kts | 9° |
| 2026-04-26 22:55 | 49.00117 | 2.58111 | 336 ft | 2 kts | 25° |
| 2026-04-26 22:56 | 49.00104 | 2.58100 | 335 ft | 2 kts | 37° |
| 2026-04-26 22:56 | 49.00093 | 2.58085 | 335 ft | 2 kts | 50° |
| 2026-04-26 22:56 | 49.00084 | 2.58067 | 335 ft | 2 kts | 64° |
| 2026-04-26 22:56 | 49.00079 | 2.58046 | 335 ft | 2 kts | 77° |
| 2026-04-26 22:57 | 49.00077 | 2.58023 | 335 ft | 2 kts | 87° |
| 2026-04-26 22:57 | 49.00076 | 2.58001 | 335 ft | 2 kts | 86° |
| 2026-04-26 22:57 | 49.00075 | 2.57978 | 335 ft | 2 kts | 84° |
| 2026-04-26 22:57 | 49.00074 | 2.57972 | 335 ft | 0 kts | 84° |
| 2026-04-26 22:58 | 49.00074 | 2.57973 | 335 ft | 0 kts | 84° |
| 2026-04-26 23:01 | 49.00076 | 2.57994 | 335 ft | 4 kts | 84° |
| 2026-04-26 23:01 | 49.00080 | 2.58061 | 335 ft | 7 kts | 85° |
| 2026-04-26 23:01 | 49.00079 | 2.58134 | 335 ft | 6 kts | 95° |
| 2026-04-26 23:02 | 49.00074 | 2.58196 | 335 ft | 5 kts | 94° |
| 2026-04-26 23:02 | 49.00077 | 2.58246 | 335 ft | 4 kts | 82° |
| 2026-04-26 23:02 | 49.00071 | 2.58286 | 335 ft | 4 kts | 124° |
| 2026-04-26 23:02 | 49.00039 | 2.58312 | 334 ft | 6 kts | 180° |
| 2026-04-26 23:03 | 49.00010 | 2.58266 | 333 ft | 7 kts | 261° |
| 2026-04-26 23:03 | 49.00003 | 2.58173 | 333 ft | 8 kts | 265° |
| 2026-04-26 23:03 | 48.99998 | 2.58090 | 333 ft | 7 kts | 265° |
| 2026-04-26 23:03 | 48.99994 | 2.58022 | 333 ft | 5 kts | 265° |
| 2026-04-26 23:04 | 48.99990 | 2.57965 | 333 ft | 5 kts | 265° |
| 2026-04-26 23:04 | 48.99987 | 2.57905 | 333 ft | 5 kts | 265° |
| 2026-04-26 23:04 | 48.99983 | 2.57848 | 333 ft | 5 kts | 265° |
| 2026-04-26 23:04 | 48.99981 | 2.57799 | 334 ft | 4 kts | 265° |
| 2026-04-26 23:05 | 48.99978 | 2.57749 | 335 ft | 5 kts | 266° |
| 2026-04-26 23:05 | 48.99975 | 2.57678 | 336 ft | 8 kts | 266° |
| 2026-04-26 23:05 | 48.99970 | 2.57572 | 336 ft | 11 kts | 265° |
| 2026-04-26 23:05 | 48.99963 | 2.57436 | 336 ft | 12 kts | 266° |
| 2026-04-26 23:06 | 48.99956 | 2.57303 | 336 ft | 12 kts | 266° |
| 2026-04-26 23:06 | 48.99950 | 2.57177 | 335 ft | 11 kts | 266° |
| 2026-04-26 23:06 | 48.99944 | 2.57056 | 335 ft | 11 kts | 266° |
| 2026-04-26 23:06 | 48.99939 | 2.56949 | 336 ft | 9 kts | 266° |
| 2026-04-26 23:07 | 48.99932 | 2.56850 | 336 ft | 9 kts | 264° |
| 2026-04-26 23:07 | 48.99926 | 2.56754 | 336 ft | 9 kts | 265° |
| 2026-04-26 23:07 | 48.99920 | 2.56629 | 336 ft | 13 kts | 266° |
| 2026-04-26 23:07 | 48.99915 | 2.56485 | 336 ft | 13 kts | 266° |
| 2026-04-26 23:08 | 48.99907 | 2.56349 | 336 ft | 12 kts | 265° |
| 2026-04-26 23:08 | 48.99900 | 2.56228 | 336 ft | 11 kts | 265° |
| 2026-04-26 23:08 | 48.99892 | 2.56094 | 338 ft | 11 kts | 265° |
| 2026-04-26 23:08 | 48.99887 | 2.55978 | 338 ft | 10 kts | 274° |
| 2026-04-26 23:09 | 48.99899 | 2.55880 | 338 ft | 8 kts | 278° |
| 2026-04-26 23:09 | 48.99884 | 2.55805 | 337 ft | 7 kts | 225° |
| 2026-04-26 23:09 | 48.99840 | 2.55797 | 337 ft | 7 kts | 178° |
| 2026-04-26 23:09 | 48.99794 | 2.55803 | 336 ft | 6 kts | 175° |
| 2026-04-26 23:10 | 48.99773 | 2.55806 | 336 ft | 0 kts | 175° |
| 2026-04-26 23:11 | 48.99764 | 2.55807 | 336 ft | 4 kts | 175° |
| 2026-04-26 23:12 | 48.99721 | 2.55812 | 336 ft | 7 kts | 175° |
| 2026-04-26 23:12 | 48.99667 | 2.55819 | 336 ft | 7 kts | 175° |
| 2026-04-26 23:12 | 48.99611 | 2.55838 | 335 ft | 8 kts | 142° |
| 2026-04-26 23:12 | 48.99602 | 2.55905 | 335 ft | 3 kts | 86° |
| 2026-04-26 23:13 | 48.99604 | 2.55940 | 335 ft | 3 kts | 86° |
| 2026-04-26 23:13 | 48.99617 | 2.56202 | 335 ft | 56 kts | 85° |
| 2026-04-26 23:13 | 48.99668 | 2.57128 | 333 ft | 119 kts | 85° |
| 2026-04-26 23:13 | 48.99754 | 2.58700 | 332 ft | 175 kts | 85° |
| 2026-04-26 23:14 | 48.99858 | 2.60692 | 636 ft | 198 kts | 84° |
| 2026-04-26 23:14 | 48.99955 | 2.62771 | 1358 ft | 201 kts | 85° |
| 2026-04-26 23:14 | 49.00018 | 2.64817 | 2196 ft | 191 kts | 87° |
| 2026-04-26 23:14 | 49.00073 | 2.66887 | 2583 ft | 202 kts | 87° |
| 2026-04-26 23:15 | 49.00114 | 2.69074 | 2982 ft | 211 kts | 88° |
| 2026-04-26 23:15 | 49.00194 | 2.71283 | 3584 ft | 209 kts | 84° |
| 2026-04-26 23:15 | 49.00376 | 2.73473 | 4083 ft | 214 kts | 80° |
| 2026-04-26 23:15 | 49.00612 | 2.75799 | 4342 ft | 232 kts | 83° |
| 2026-04-26 23:16 | 49.00753 | 2.78311 | 4651 ft | 249 kts | 92° |
| 2026-04-26 23:16 | 49.00529 | 2.80990 | 5060 ft | 261 kts | 99° |
| 2026-04-26 23:16 | 49.00224 | 2.83720 | 5677 ft | 265 kts | 99° |
| 2026-04-26 23:16 | 48.99911 | 2.86485 | 6303 ft | 269 kts | 99° |
| 2026-04-26 23:17 | 48.99587 | 2.89329 | 6931 ft | 273 kts | 99° |
| 2026-04-26 23:17 | 48.99266 | 2.92147 | 7544 ft | 276 kts | 99° |
| 2026-04-26 23:17 | 48.98937 | 2.95027 | 8158 ft | 280 kts | 99° |
| 2026-04-26 23:17 | 48.98489 | 2.97941 | 8717 ft | 284 kts | 114° |
| 2026-04-26 23:18 | 48.97362 | 3.00357 | 9215 ft | 289 kts | 140° |
| 2026-04-26 23:18 | 48.95582 | 3.01807 | 9730 ft | 292 kts | 168° |
| 2026-04-26 23:18 | 48.93568 | 3.01870 | 10232 ft | 294 kts | 195° |
| 2026-04-26 23:18 | 48.91694 | 3.00650 | 10569 ft | 304 kts | 211° |
| 2026-04-26 23:19 | 48.89837 | 2.98958 | 10810 ft | 320 kts | 212° |
| 2026-04-26 23:19 | 48.87872 | 2.97124 | 11090 ft | 336 kts | 212° |
| 2026-04-26 23:19 | 48.85845 | 2.95230 | 11392 ft | 351 kts | 212° |
| 2026-04-26 23:19 | 48.83729 | 2.93256 | 11722 ft | 366 kts | 212° |
| 2026-04-26 23:20 | 48.81517 | 2.91193 | 12066 ft | 380 kts | 212° |
| 2026-04-26 23:20 | 48.79237 | 2.89071 | 12570 ft | 390 kts | 212° |
| 2026-04-26 23:20 | 48.76928 | 2.86924 | 13268 ft | 393 kts | 212° |
| 2026-04-26 23:20 | 48.74598 | 2.84760 | 14033 ft | 396 kts | 212° |
| 2026-04-26 23:21 | 48.72257 | 2.82588 | 14751 ft | 401 kts | 213° |
| 2026-04-26 23:21 | 48.69872 | 2.80378 | 15456 ft | 405 kts | 213° |
| 2026-04-26 23:21 | 48.67460 | 2.78145 | 16176 ft | 409 kts | 213° |
| 2026-04-26 23:21 | 48.65028 | 2.75897 | 16859 ft | 414 kts | 213° |
| 2026-04-26 23:22 | 48.62584 | 2.73639 | 17546 ft | 418 kts | 213° |
| 2026-04-26 23:22 | 48.60074 | 2.71323 | 18226 ft | 423 kts | 213° |
| 2026-04-26 23:22 | 48.57586 | 2.69031 | 18917 ft | 426 kts | 213° |
| 2026-04-26 23:22 | 48.55052 | 2.66700 | 19626 ft | 428 kts | 213° |
| 2026-04-26 23:23 | 48.52490 | 2.64461 | 20303 ft | 432 kts | 208° |
| 2026-04-26 23:23 | 48.49668 | 2.62744 | 20933 ft | 438 kts | 199° |
| 2026-04-26 23:23 | 48.46698 | 2.61736 | 21544 ft | 444 kts | 190° |
| 2026-04-26 23:23 | 48.43630 | 2.61466 | 22148 ft | 450 kts | 181° |
| 2026-04-26 23:24 | 48.40491 | 2.61657 | 22743 ft | 454 kts | 180° |
| 2026-04-26 23:24 | 48.37321 | 2.61900 | 23339 ft | 457 kts | 180° |
| 2026-04-26 23:24 | 48.34158 | 2.62141 | 23886 ft | 460 kts | 180° |
| 2026-04-26 23:24 | 48.30942 | 2.62475 | 24404 ft | 466 kts | 175° |
| 2026-04-26 23:25 | 48.27765 | 2.63469 | 24886 ft | 473 kts | 166° |
| 2026-04-26 23:25 | 48.24697 | 2.65224 | 25353 ft | 480 kts | 156° |
| 2026-04-26 23:25 | 48.21715 | 2.67463 | 25900 ft | 483 kts | 155° |
| 2026-04-26 23:25 | 48.18708 | 2.69785 | 26470 ft | 485 kts | 154° |
| 2026-04-26 23:26 | 48.15733 | 2.72079 | 27003 ft | 488 kts | 155° |
| 2026-04-26 23:26 | 48.12693 | 2.74416 | 27485 ft | 491 kts | 154° |
| 2026-04-26 23:26 | 48.09650 | 2.76749 | 27932 ft | 495 kts | 155° |
| 2026-04-26 23:26 | 48.06575 | 2.79025 | 28387 ft | 498 kts | 158° |
| 2026-04-26 23:27 | 48.03421 | 2.81054 | 28834 ft | 501 kts | 159° |
| 2026-04-26 23:27 | 48.00206 | 2.83067 | 29311 ft | 503 kts | 159° |
| 2026-04-26 23:27 | 47.96951 | 2.85107 | 29813 ft | 505 kts | 159° |
| 2026-04-26 23:27 | 47.93740 | 2.87125 | 30336 ft | 506 kts | 159° |
| 2026-04-26 23:28 | 47.90483 | 2.89174 | 30945 ft | 505 kts | 159° |
| 2026-04-26 23:28 | 47.87238 | 2.91218 | 31516 ft | 504 kts | 159° |
| 2026-04-26 23:28 | 47.84021 | 2.93244 | 31984 ft | 505 kts | 159° |
| 2026-04-26 23:28 | 47.80773 | 2.95288 | 32419 ft | 506 kts | 159° |
| 2026-04-26 23:29 | 47.77480 | 2.97361 | 32864 ft | 506 kts | 159° |
| 2026-04-26 23:29 | 47.74199 | 2.99423 | 33180 ft | 508 kts | 159° |
| 2026-04-26 23:29 | 47.70899 | 3.01496 | 33186 ft | 508 kts | 158° |
| 2026-04-26 23:30 | 47.64370 | 3.05592 | 33184 ft | 503 kts | 158° |
| 2026-04-26 23:30 | 47.57908 | 3.09634 | 33185 ft | 504 kts | 158° |
| 2026-04-26 23:31 | 47.51469 | 3.13652 | 33185 ft | 505 kts | 158° |
| 2026-04-26 23:31 | 47.44986 | 3.17686 | 33184 ft | 505 kts | 158° |
| 2026-04-26 23:32 | 47.38537 | 3.21688 | 33182 ft | 505 kts | 158° |
| 2026-04-26 23:32 | 47.32083 | 3.25682 | 33182 ft | 505 kts | 158° |
| 2026-04-26 23:33 | 47.25619 | 3.29672 | 33182 ft | 504 kts | 158° |
| 2026-04-26 23:33 | 47.19143 | 3.33659 | 33182 ft | 505 kts | 158° |
| 2026-04-26 23:34 | 47.12676 | 3.37630 | 33180 ft | 504 kts | 158° |
| 2026-04-26 23:34 | 47.06246 | 3.41568 | 33182 ft | 504 kts | 158° |
| 2026-04-26 23:35 | 46.99699 | 3.45567 | 33181 ft | 505 kts | 158° |
| 2026-04-26 23:35 | 46.93263 | 3.49488 | 33184 ft | 505 kts | 158° |
| 2026-04-26 23:36 | 46.86771 | 3.53432 | 33180 ft | 505 kts | 158° |
| 2026-04-26 23:36 | 46.80294 | 3.57467 | 33175 ft | 504 kts | 153° |
| 2026-04-26 23:37 | 46.74533 | 3.63371 | 33181 ft | 506 kts | 135° |
| 2026-04-26 23:37 | 46.70172 | 3.71407 | 33176 ft | 506 kts | 119° |
| 2026-04-26 23:38 | 46.67559 | 3.80895 | 33180 ft | 503 kts | 103° |
| 2026-04-26 23:38 | 46.65905 | 3.90812 | 33182 ft | 504 kts | 102° |
| 2026-04-26 23:39 | 46.64233 | 4.00736 | 33184 ft | 503 kts | 102° |
| 2026-04-26 23:39 | 46.62550 | 4.10542 | 33180 ft | 503 kts | 102° |
| 2026-04-26 23:40 | 46.60834 | 4.20436 | 33183 ft | 502 kts | 102° |
| 2026-04-26 23:40 | 46.59114 | 4.30266 | 33177 ft | 502 kts | 102° |
| 2026-04-26 23:41 | 46.57389 | 4.40055 | 33174 ft | 501 kts | 102° |
| 2026-04-26 23:41 | 46.55651 | 4.49854 | 33172 ft | 501 kts | 102° |
| 2026-04-26 23:42 | 46.53913 | 4.59604 | 33172 ft | 501 kts | 102° |
| 2026-04-26 23:42 | 46.51272 | 4.74305 | 33170 ft | 500 kts | 103° |
| 2026-04-26 23:43 | 46.49511 | 4.84044 | 33163 ft | 500 kts | 102° |
| 2026-04-26 23:43 | 46.47731 | 4.93835 | 33158 ft | 500 kts | 102° |
| 2026-04-26 23:44 | 46.45964 | 5.03502 | 33155 ft | 499 kts | 102° |
| 2026-04-26 23:44 | 46.44181 | 5.13211 | 33153 ft | 499 kts | 102° |
| 2026-04-26 23:45 | 46.42390 | 5.22923 | 33158 ft | 499 kts | 102° |
| 2026-04-26 23:45 | 46.40591 | 5.32631 | 33158 ft | 498 kts | 102° |
| 2026-04-26 23:46 | 46.38181 | 5.41955 | 33166 ft | 503 kts | 117° |
| 2026-04-26 23:46 | 46.34048 | 5.50178 | 33178 ft | 506 kts | 128° |
| 2026-04-26 23:47 | 46.29517 | 5.57876 | 33179 ft | 505 kts | 128° |
| 2026-04-26 23:47 | 46.24959 | 5.65582 | 33191 ft | 504 kts | 129° |
| 2026-04-26 23:48 | 46.20404 | 5.73262 | 33199 ft | 504 kts | 129° |
| 2026-04-26 23:48 | 46.15806 | 5.80991 | 33198 ft | 505 kts | 129° |
| 2026-04-26 23:49 | 46.11256 | 5.88618 | 33179 ft | 503 kts | 129° |
| 2026-04-26 23:49 | 46.06692 | 5.96248 | 33177 ft | 504 kts | 129° |
| 2026-04-26 23:50 | 46.02134 | 6.03849 | 33180 ft | 503 kts | 129° |
| 2026-04-26 23:50 | 45.97543 | 6.11482 | 33184 ft | 503 kts | 129° |
| 2026-04-26 23:51 | 45.92963 | 6.19073 | 33183 ft | 503 kts | 129° |
| 2026-04-26 23:51 | 45.88407 | 6.26607 | 33177 ft | 503 kts | 129° |
| 2026-04-26 23:52 | 45.83835 | 6.34145 | 33213 ft | 501 kts | 129° |
| 2026-04-26 23:52 | 45.78817 | 6.41070 | 33234 ft | 505 kts | 141° |
| 2026-04-26 23:53 | 45.73091 | 6.46972 | 33252 ft | 504 kts | 142° |
| 2026-04-26 23:53 | 45.67394 | 6.52771 | 33251 ft | 503 kts | 142° |
| 2026-04-26 23:54 | 45.61719 | 6.58532 | 33257 ft | 504 kts | 142° |
| 2026-04-26 23:54 | 45.56002 | 6.64318 | 33261 ft | 502 kts | 142° |
| 2026-04-26 23:55 | 45.50303 | 6.70073 | 33271 ft | 501 kts | 143° |
| 2026-04-26 23:55 | 45.44632 | 6.75782 | 33289 ft | 501 kts | 143° |
| 2026-04-26 23:56 | 45.38935 | 6.81505 | 33278 ft | 500 kts | 143° |
| 2026-04-26 23:56 | 45.33259 | 6.87191 | 33284 ft | 500 kts | 143° |
| 2026-04-26 23:57 | 45.27562 | 6.92898 | 33284 ft | 500 kts | 141° |
| 2026-04-26 23:57 | 45.22442 | 6.99476 | 33295 ft | 498 kts | 134° |
| 2026-04-26 23:58 | 45.17507 | 7.06287 | 33282 ft | 497 kts | 134° |
| 2026-04-26 23:58 | 45.12548 | 7.13108 | 33267 ft | 497 kts | 134° |
| 2026-04-26 23:59 | 45.08178 | 7.20643 | 33256 ft | 493 kts | 123° |
| 2026-04-26 23:59 | 45.04254 | 7.28559 | 33242 ft | 495 kts | 123° |
| 2026-04-27 00:00 | 45.00303 | 7.36509 | 33218 ft | 496 kts | 123° |
| 2026-04-27 00:00 | 44.96346 | 7.44466 | 33181 ft | 496 kts | 123° |
| 2026-04-27 00:01 | 44.92410 | 7.52445 | 33155 ft | 495 kts | 123° |
| 2026-04-27 00:01 | 44.88491 | 7.60360 | 33148 ft | 495 kts | 123° |
| 2026-04-27 00:02 | 44.84517 | 7.68363 | 33134 ft | 496 kts | 124° |
| 2026-04-27 00:02 | 44.80540 | 7.76346 | 33133 ft | 497 kts | 124° |
| 2026-04-27 00:03 | 44.76563 | 7.84305 | 33147 ft | 498 kts | 124° |
| 2026-04-27 00:03 | 44.72545 | 7.92324 | 33139 ft | 497 kts | 124° |
| 2026-04-27 00:04 | 44.68575 | 8.00226 | 33136 ft | 499 kts | 125° |
| 2026-04-27 00:04 | 44.64553 | 8.08208 | 33135 ft | 498 kts | 125° |
| 2026-04-27 00:05 | 44.60553 | 8.16124 | 33139 ft | 499 kts | 125° |
| 2026-04-27 00:05 | 44.56513 | 8.24099 | 33136 ft | 500 kts | 125° |
| 2026-04-27 00:06 | 44.52504 | 8.31990 | 33139 ft | 499 kts | 125° |
| 2026-04-27 00:06 | 44.48479 | 8.39891 | 33138 ft | 500 kts | 125° |
| 2026-04-27 00:07 | 44.44427 | 8.47823 | 33142 ft | 501 kts | 125° |
| 2026-04-27 00:07 | 44.40395 | 8.55694 | 33147 ft | 499 kts | 125° |
| 2026-04-27 00:08 | 44.36350 | 8.63569 | 33142 ft | 499 kts | 126° |
| 2026-04-27 00:08 | 44.32280 | 8.71473 | 33143 ft | 499 kts | 126° |
| 2026-04-27 00:09 | 44.28235 | 8.79304 | 33151 ft | 500 kts | 127° |
| 2026-04-27 00:09 | 44.24170 | 8.87155 | 33147 ft | 501 kts | 127° |
| 2026-04-27 00:10 | 44.20061 | 8.95069 | 33150 ft | 503 kts | 127° |
| 2026-04-27 00:10 | 44.15982 | 9.02903 | 33152 ft | 500 kts | 127° |
| 2026-04-27 00:11 | 44.11893 | 9.10736 | 33151 ft | 500 kts | 127° |
| 2026-04-27 00:11 | 44.07790 | 9.18573 | 33157 ft | 500 kts | 127° |
| 2026-04-27 00:12 | 44.03693 | 9.26380 | 33155 ft | 500 kts | 127° |
| 2026-04-27 00:12 | 43.99610 | 9.34139 | 33159 ft | 501 kts | 127° |
| 2026-04-27 00:13 | 43.95499 | 9.41929 | 33156 ft | 500 kts | 127° |
| 2026-04-27 00:13 | 43.91362 | 9.49747 | 33154 ft | 502 kts | 127° |
| 2026-04-27 00:14 | 43.87249 | 9.57502 | 33153 ft | 501 kts | 127° |
| 2026-04-27 00:14 | 43.83113 | 9.65278 | 33152 ft | 502 kts | 128° |
| 2026-04-27 00:15 | 43.78966 | 9.73052 | 33151 ft | 502 kts | 128° |
| 2026-04-27 00:15 | 43.74807 | 9.80830 | 33149 ft | 502 kts | 128° |
| 2026-04-27 00:16 | 43.70659 | 9.88567 | 33154 ft | 501 kts | 128° |
| 2026-04-27 00:16 | 43.66464 | 9.96370 | 33158 ft | 502 kts | 128° |
| 2026-04-27 00:17 | 43.62315 | 10.04068 | 33163 ft | 502 kts | 127° |
| 2026-04-27 00:17 | 43.58152 | 10.11770 | 33161 ft | 502 kts | 128° |
| 2026-04-27 00:18 | 43.53951 | 10.19523 | 33162 ft | 502 kts | 128° |
| 2026-04-27 00:18 | 43.49755 | 10.27247 | 33161 ft | 502 kts | 128° |
| 2026-04-27 00:19 | 43.45549 | 10.34969 | 33159 ft | 502 kts | 128° |
| 2026-04-27 00:19 | 43.41366 | 10.42627 | 33158 ft | 502 kts | 128° |
| 2026-04-27 00:20 | 43.37145 | 10.50335 | 33156 ft | 502 kts | 128° |
| 2026-04-27 00:20 | 43.32943 | 10.57989 | 33158 ft | 503 kts | 128° |
| 2026-04-27 00:21 | 43.28686 | 10.65722 | 33153 ft | 502 kts | 128° |
| 2026-04-27 00:21 | 43.24491 | 10.73325 | 33152 ft | 502 kts | 128° |
| 2026-04-27 00:22 | 43.20253 | 10.80984 | 33158 ft | 502 kts | 128° |
| 2026-04-27 00:22 | 43.16030 | 10.88597 | 33155 ft | 503 kts | 128° |
| 2026-04-27 00:23 | 43.11811 | 10.96181 | 33152 ft | 502 kts | 128° |
| 2026-04-27 00:23 | 43.07542 | 11.03839 | 33150 ft | 502 kts | 128° |
| 2026-04-27 00:24 | 43.03326 | 11.11380 | 33150 ft | 502 kts | 128° |
| 2026-04-27 00:24 | 42.99083 | 11.18951 | 33155 ft | 502 kts | 128° |
| 2026-04-27 00:25 | 42.94815 | 11.26546 | 33157 ft | 501 kts | 128° |
| 2026-04-27 00:25 | 42.90580 | 11.34063 | 33152 ft | 501 kts | 128° |
| 2026-04-27 00:26 | 42.86290 | 11.41659 | 33154 ft | 501 kts | 128° |
| 2026-04-27 00:26 | 42.82053 | 11.49141 | 33158 ft | 501 kts | 128° |
| 2026-04-27 00:27 | 42.77767 | 11.56692 | 33164 ft | 502 kts | 128° |
| 2026-04-27 00:27 | 42.73490 | 11.64208 | 33163 ft | 501 kts | 128° |
| 2026-04-27 00:28 | 42.69201 | 11.71727 | 33157 ft | 501 kts | 128° |
| 2026-04-27 00:28 | 42.64897 | 11.79251 | 33157 ft | 501 kts | 128° |
| 2026-04-27 00:29 | 42.60630 | 11.86693 | 33155 ft | 500 kts | 128° |
| 2026-04-27 00:29 | 42.56319 | 11.94191 | 33158 ft | 501 kts | 128° |
| 2026-04-27 00:30 | 42.52005 | 12.01677 | 33160 ft | 501 kts | 128° |
| 2026-04-27 00:30 | 42.47721 | 12.09092 | 33154 ft | 500 kts | 128° |
| 2026-04-27 00:31 | 42.43408 | 12.16538 | 33151 ft | 500 kts | 128° |
| 2026-04-27 00:31 | 42.39091 | 12.23972 | 33149 ft | 500 kts | 128° |
| 2026-04-27 00:32 | 42.34779 | 12.31381 | 33150 ft | 500 kts | 128° |
| 2026-04-27 00:32 | 42.30464 | 12.38776 | 33152 ft | 500 kts | 128° |
| 2026-04-27 00:33 | 42.26135 | 12.46176 | 33154 ft | 500 kts | 128° |
| 2026-04-27 00:33 | 42.21812 | 12.53548 | 33154 ft | 500 kts | 128° |
| 2026-04-27 00:34 | 42.17455 | 12.60960 | 33151 ft | 499 kts | 128° |
| 2026-04-27 00:34 | 42.13158 | 12.68253 | 33152 ft | 499 kts | 129° |
| 2026-04-27 00:35 | 42.08838 | 12.75565 | 33152 ft | 498 kts | 129° |
| 2026-04-27 00:35 | 42.04514 | 12.82867 | 33154 ft | 500 kts | 129° |
| 2026-04-27 00:36 | 42.00158 | 12.90206 | 33153 ft | 499 kts | 129° |
| 2026-04-27 00:36 | 41.95857 | 12.97432 | 33155 ft | 499 kts | 129° |
| 2026-04-27 00:37 | 41.91504 | 13.04730 | 33157 ft | 498 kts | 129° |
| 2026-04-27 00:37 | 41.87158 | 13.11998 | 33162 ft | 498 kts | 129° |
| 2026-04-27 00:38 | 41.82802 | 13.19265 | 33170 ft | 499 kts | 129° |
| 2026-04-27 00:38 | 41.78482 | 13.26454 | 33171 ft | 499 kts | 129° |
| 2026-04-27 00:39 | 41.74085 | 13.33756 | 33179 ft | 499 kts | 129° |
| 2026-04-27 00:39 | 41.69977 | 13.41240 | 33187 ft | 499 kts | 124° |
| 2026-04-27 00:40 | 41.66023 | 13.48953 | 33191 ft | 500 kts | 124° |
| 2026-04-27 00:40 | 41.62062 | 13.56609 | 33190 ft | 500 kts | 124° |
| 2026-04-27 00:41 | 41.58112 | 13.64194 | 33178 ft | 500 kts | 125° |
| 2026-04-27 00:41 | 41.54103 | 13.71857 | 33160 ft | 500 kts | 126° |
| 2026-04-27 00:42 | 41.50116 | 13.79449 | 33154 ft | 500 kts | 126° |
| 2026-04-27 00:42 | 41.46117 | 13.87042 | 33152 ft | 499 kts | 126° |
| 2026-04-27 00:43 | 41.42120 | 13.94609 | 33151 ft | 499 kts | 126° |
| 2026-04-27 00:43 | 41.38103 | 14.02194 | 33156 ft | 499 kts | 126° |
| 2026-04-27 00:44 | 41.34095 | 14.09743 | 33156 ft | 500 kts | 126° |
| 2026-04-27 00:44 | 41.30056 | 14.17330 | 33152 ft | 500 kts | 126° |
| 2026-04-27 00:45 | 41.26017 | 14.24898 | 33154 ft | 501 kts | 126° |
| 2026-04-27 00:45 | 41.21940 | 14.32520 | 33145 ft | 501 kts | 126° |
| 2026-04-27 00:46 | 41.17873 | 14.40103 | 33149 ft | 501 kts | 126° |
| 2026-04-27 00:46 | 41.13851 | 14.47584 | 33151 ft | 501 kts | 126° |
| 2026-04-27 00:47 | 41.09797 | 14.55106 | 33148 ft | 501 kts | 126° |
| 2026-04-27 00:47 | 41.05729 | 14.62635 | 33151 ft | 500 kts | 126° |
| 2026-04-27 00:48 | 41.01668 | 14.70134 | 33152 ft | 500 kts | 126° |
| 2026-04-27 00:48 | 40.97607 | 14.77613 | 33150 ft | 501 kts | 126° |
| 2026-04-27 00:49 | 40.93502 | 14.85157 | 33150 ft | 501 kts | 126° |
| 2026-04-27 00:49 | 40.89418 | 14.92643 | 33142 ft | 502 kts | 126° |
| 2026-04-27 00:50 | 40.83276 | 15.03867 | 33145 ft | 502 kts | 126° |
| 2026-04-27 00:51 | 40.79198 | 15.11298 | 33142 ft | 501 kts | 126° |
| 2026-04-27 00:51 | 40.75098 | 15.18749 | 33142 ft | 501 kts | 126° |
| 2026-04-27 00:52 | 40.71018 | 15.26149 | 33140 ft | 499 kts | 126° |
| 2026-04-27 00:52 | 40.66908 | 15.33583 | 33141 ft | 501 kts | 126° |
| 2026-04-27 00:53 | 40.62828 | 15.40945 | 33145 ft | 500 kts | 126° |
| 2026-04-27 00:53 | 40.58699 | 15.48380 | 33148 ft | 500 kts | 126° |
| 2026-04-27 00:54 | 40.54579 | 15.55778 | 33149 ft | 501 kts | 126° |
| 2026-04-27 00:54 | 40.50457 | 15.63165 | 33173 ft | 501 kts | 126° |
| 2026-04-27 00:55 | 40.46338 | 15.70529 | 33186 ft | 499 kts | 127° |
| 2026-04-27 00:55 | 40.42203 | 15.77903 | 33189 ft | 499 kts | 127° |
| 2026-04-27 00:56 | 40.38085 | 15.85230 | 33183 ft | 499 kts | 127° |
| 2026-04-27 00:56 | 40.33962 | 15.92549 | 33178 ft | 499 kts | 127° |
| 2026-04-27 00:57 | 40.29845 | 15.99839 | 33167 ft | 500 kts | 127° |
| 2026-04-27 00:57 | 40.25691 | 16.07177 | 33162 ft | 500 kts | 127° |
| 2026-04-27 00:58 | 40.21569 | 16.14443 | 33155 ft | 500 kts | 127° |
| 2026-04-27 00:58 | 40.17428 | 16.21726 | 33156 ft | 500 kts | 127° |
| 2026-04-27 00:59 | 40.13254 | 16.29048 | 33162 ft | 500 kts | 127° |
| 2026-04-27 00:59 | 40.09108 | 16.36305 | 33158 ft | 499 kts | 127° |
| 2026-04-27 01:00 | 40.04951 | 16.43566 | 33149 ft | 500 kts | 127° |
| 2026-04-27 01:00 | 40.00806 | 16.50787 | 33136 ft | 498 kts | 126° |
| 2026-04-27 01:01 | 39.96645 | 16.58020 | 33131 ft | 498 kts | 126° |
| 2026-04-27 01:01 | 39.92450 | 16.65295 | 33130 ft | 499 kts | 127° |
| 2026-04-27 01:02 | 39.88288 | 16.72497 | 33122 ft | 499 kts | 127° |
| 2026-04-27 01:02 | 39.84108 | 16.79713 | 33123 ft | 500 kts | 127° |
| 2026-04-27 01:03 | 39.79908 | 16.86947 | 33120 ft | 500 kts | 127° |
| 2026-04-27 01:03 | 39.75711 | 16.94160 | 33118 ft | 500 kts | 127° |
| 2026-04-27 01:04 | 39.71539 | 17.01313 | 33118 ft | 499 kts | 127° |
| 2026-04-27 01:04 | 39.67326 | 17.08520 | 33115 ft | 499 kts | 127° |
| 2026-04-27 01:05 | 39.63135 | 17.15673 | 33117 ft | 499 kts | 127° |
| 2026-04-27 01:05 | 39.58952 | 17.22798 | 33113 ft | 499 kts | 127° |
| 2026-04-27 01:06 | 39.54747 | 17.29942 | 33114 ft | 500 kts | 127° |
| 2026-04-27 01:06 | 39.50539 | 17.37077 | 33110 ft | 499 kts | 127° |
| 2026-04-27 01:07 | 39.46326 | 17.44203 | 33112 ft | 500 kts | 127° |
| 2026-04-27 01:07 | 39.42108 | 17.51322 | 33105 ft | 499 kts | 127° |
| 2026-04-27 01:08 | 39.37871 | 17.58457 | 33109 ft | 500 kts | 127° |
| 2026-04-27 01:08 | 39.33657 | 17.65538 | 33106 ft | 499 kts | 128° |
| 2026-04-27 01:09 | 39.29409 | 17.72659 | 33101 ft | 499 kts | 128° |
| 2026-04-27 01:09 | 39.25194 | 17.79709 | 33104 ft | 499 kts | 128° |
| 2026-04-27 01:10 | 39.20949 | 17.86794 | 33102 ft | 499 kts | 128° |
| 2026-04-27 01:10 | 39.16708 | 17.93857 | 33097 ft | 499 kts | 128° |
| 2026-04-27 01:11 | 39.12476 | 18.00889 | 33093 ft | 499 kts | 128° |
| 2026-04-27 01:11 | 39.08218 | 18.07949 | 33093 ft | 499 kts | 128° |
| 2026-04-27 01:12 | 39.03944 | 18.15021 | 33103 ft | 499 kts | 128° |
| 2026-04-27 01:12 | 38.99694 | 18.22036 | 33099 ft | 498 kts | 128° |
| 2026-04-27 01:13 | 38.95446 | 18.29033 | 33093 ft | 498 kts | 128° |
| 2026-04-27 01:13 | 38.91175 | 18.36052 | 33098 ft | 499 kts | 128° |
| 2026-04-27 01:14 | 38.86923 | 18.43025 | 33101 ft | 500 kts | 128° |
| 2026-04-27 01:14 | 38.82621 | 18.50065 | 33095 ft | 501 kts | 128° |
| 2026-04-27 01:15 | 38.78307 | 18.57108 | 33095 ft | 501 kts | 128° |
| 2026-04-27 01:15 | 38.74031 | 18.64075 | 33099 ft | 501 kts | 128° |
| 2026-04-27 01:16 | 38.69720 | 18.71083 | 33098 ft | 501 kts | 129° |
| 2026-04-27 01:16 | 38.65406 | 18.78081 | 33097 ft | 501 kts | 129° |
| 2026-04-27 01:17 | 38.61104 | 18.85045 | 33096 ft | 501 kts | 129° |
| 2026-04-27 01:17 | 38.56776 | 18.92035 | 33091 ft | 502 kts | 129° |
| 2026-04-27 01:18 | 38.52430 | 18.98991 | 33083 ft | 502 kts | 132° |
| 2026-04-27 01:18 | 38.47617 | 19.05492 | 33095 ft | 502 kts | 134° |
| 2026-04-27 01:19 | 38.42748 | 19.11910 | 33097 ft | 503 kts | 135° |
| 2026-04-27 01:19 | 38.37900 | 19.18273 | 33098 ft | 502 kts | 135° |
| 2026-04-27 01:20 | 38.32990 | 19.24699 | 33098 ft | 503 kts | 135° |
| 2026-04-27 01:20 | 38.28113 | 19.31067 | 33092 ft | 502 kts | 135° |
| 2026-04-27 01:21 | 38.23231 | 19.37424 | 33092 ft | 503 kts | 135° |
| 2026-04-27 01:21 | 38.18362 | 19.43752 | 33101 ft | 503 kts | 135° |
| 2026-04-27 01:22 | 38.13473 | 19.50092 | 33086 ft | 502 kts | 135° |
| 2026-04-27 01:22 | 38.08541 | 19.56475 | 33096 ft | 505 kts | 135° |
| 2026-04-27 01:23 | 38.03662 | 19.62776 | 33100 ft | 505 kts | 135° |
| 2026-04-27 01:23 | 37.98712 | 19.69156 | 33096 ft | 504 kts | 136° |
| 2026-04-27 01:24 | 37.93779 | 19.75501 | 33093 ft | 504 kts | 136° |
| 2026-04-27 01:24 | 37.88848 | 19.81830 | 33095 ft | 504 kts | 136° |
| 2026-04-27 01:25 | 37.83933 | 19.88127 | 33093 ft | 505 kts | 136° |
| 2026-04-27 01:25 | 37.78999 | 19.94435 | 33096 ft | 505 kts | 136° |
| 2026-04-27 01:26 | 37.74046 | 20.00753 | 33095 ft | 506 kts | 136° |
| 2026-04-27 01:26 | 37.69083 | 20.07072 | 33093 ft | 505 kts | 136° |
| 2026-04-27 01:27 | 37.64114 | 20.13387 | 33094 ft | 508 kts | 136° |
| 2026-04-27 01:27 | 37.59137 | 20.19699 | 33089 ft | 507 kts | 136° |
| 2026-04-27 01:28 | 37.54174 | 20.25980 | 33092 ft | 508 kts | 136° |
| 2026-04-27 01:28 | 37.49191 | 20.32273 | 33089 ft | 508 kts | 136° |
| 2026-04-27 01:29 | 37.44178 | 20.38593 | 33090 ft | 509 kts | 136° |
| 2026-04-27 01:29 | 37.39199 | 20.44855 | 33090 ft | 509 kts | 136° |
| 2026-04-27 01:30 | 37.34192 | 20.51142 | 33087 ft | 510 kts | 136° |
| 2026-04-27 01:30 | 37.29198 | 20.57399 | 33091 ft | 510 kts | 136° |
| 2026-04-27 01:31 | 37.24175 | 20.63681 | 33087 ft | 511 kts | 136° |
| 2026-04-27 01:31 | 37.19125 | 20.69983 | 33086 ft | 511 kts | 137° |
| 2026-04-27 01:32 | 37.14103 | 20.76237 | 33079 ft | 513 kts | 137° |
| 2026-04-27 01:32 | 37.09040 | 20.82531 | 33075 ft | 513 kts | 137° |
| 2026-04-27 01:33 | 37.03975 | 20.88814 | 33079 ft | 513 kts | 137° |
| 2026-04-27 01:33 | 36.98922 | 20.95071 | 33078 ft | 513 kts | 137° |
| 2026-04-27 01:34 | 36.93855 | 21.01332 | 33081 ft | 513 kts | 137° |
| 2026-04-27 01:34 | 36.88787 | 21.07582 | 33073 ft | 512 kts | 137° |
| 2026-04-27 01:35 | 36.83717 | 21.13822 | 33074 ft | 512 kts | 137° |
| 2026-04-27 01:35 | 36.78653 | 21.20043 | 33080 ft | 512 kts | 137° |
| 2026-04-27 01:36 | 36.73577 | 21.26265 | 33082 ft | 512 kts | 137° |
| 2026-04-27 01:36 | 36.68476 | 21.32507 | 33080 ft | 513 kts | 137° |
| 2026-04-27 01:37 | 36.63421 | 21.38680 | 33080 ft | 512 kts | 137° |
| 2026-04-27 01:37 | 36.58339 | 21.44874 | 33072 ft | 512 kts | 137° |
| 2026-04-27 01:38 | 36.53234 | 21.51083 | 33075 ft | 512 kts | 137° |
| 2026-04-27 01:38 | 36.48154 | 21.57251 | 33076 ft | 512 kts | 137° |
| 2026-04-27 01:39 | 36.43039 | 21.63449 | 33080 ft | 511 kts | 137° |
| 2026-04-27 01:39 | 36.37955 | 21.69597 | 33058 ft | 511 kts | 137° |
| 2026-04-27 01:40 | 36.32865 | 21.75741 | 33062 ft | 512 kts | 137° |
| 2026-04-27 01:40 | 36.27758 | 21.81893 | 33062 ft | 511 kts | 137° |
| 2026-04-27 01:41 | 36.22655 | 21.88029 | 33058 ft | 512 kts | 137° |
| 2026-04-27 01:41 | 36.17549 | 21.94156 | 33058 ft | 512 kts | 137° |
| 2026-04-27 01:42 | 36.12436 | 22.00281 | 33055 ft | 512 kts | 137° |
| 2026-04-27 01:42 | 36.07329 | 22.06387 | 33054 ft | 511 kts | 137° |
| 2026-04-27 01:43 | 36.02218 | 22.12485 | 33055 ft | 511 kts | 137° |
| 2026-04-27 01:43 | 35.97118 | 22.18559 | 33058 ft | 511 kts | 137° |
| 2026-04-27 01:44 | 35.91989 | 22.24656 | 33061 ft | 512 kts | 137° |
| 2026-04-27 01:44 | 35.86829 | 22.30777 | 33058 ft | 513 kts | 137° |
| 2026-04-27 01:45 | 35.81706 | 22.36845 | 33060 ft | 513 kts | 137° |
| 2026-04-27 01:45 | 35.76577 | 22.42907 | 33063 ft | 512 kts | 137° |
| 2026-04-27 01:46 | 35.71447 | 22.48959 | 33060 ft | 512 kts | 137° |
| 2026-04-27 01:46 | 35.66285 | 22.55038 | 33064 ft | 512 kts | 137° |
| 2026-04-27 01:47 | 35.61169 | 22.61051 | 33065 ft | 511 kts | 137° |
| 2026-04-27 01:47 | 35.56029 | 22.67080 | 33056 ft | 510 kts | 137° |
| 2026-04-27 01:48 | 35.50873 | 22.73117 | 33058 ft | 511 kts | 138° |
| 2026-04-27 01:48 | 35.45732 | 22.79126 | 33058 ft | 512 kts | 138° |
| 2026-04-27 01:49 | 35.40591 | 22.85123 | 33058 ft | 512 kts | 137° |
| 2026-04-27 01:49 | 35.35424 | 22.91141 | 33056 ft | 511 kts | 137° |
| 2026-04-27 01:50 | 35.30260 | 22.97142 | 33056 ft | 512 kts | 137° |
| 2026-04-27 01:50 | 35.25111 | 23.03116 | 33056 ft | 511 kts | 137° |
| 2026-04-27 01:51 | 35.19989 | 23.09046 | 33055 ft | 510 kts | 137° |
| 2026-04-27 01:51 | 35.14813 | 23.15029 | 33052 ft | 511 kts | 137° |
| 2026-04-27 01:52 | 35.09637 | 23.21001 | 33054 ft | 512 kts | 137° |
| 2026-04-27 01:52 | 35.04486 | 23.26933 | 33052 ft | 512 kts | 137° |
| 2026-04-27 01:53 | 34.99301 | 23.32894 | 33053 ft | 513 kts | 137° |
| 2026-04-27 01:53 | 34.94101 | 23.38860 | 33049 ft | 512 kts | 137° |
| 2026-04-27 01:54 | 34.88932 | 23.44781 | 33052 ft | 512 kts | 137° |
| 2026-04-27 01:54 | 34.83738 | 23.50719 | 33051 ft | 512 kts | 137° |
| 2026-04-27 01:55 | 34.78531 | 23.56661 | 33051 ft | 513 kts | 137° |
| 2026-04-27 01:55 | 34.73333 | 23.62583 | 33050 ft | 511 kts | 137° |
| 2026-04-27 01:56 | 34.65535 | 23.71445 | 33050 ft | 512 kts | 138° |
| 2026-04-27 01:56 | 34.60363 | 23.77310 | 33047 ft | 512 kts | 138° |
| 2026-04-27 01:57 | 34.55145 | 23.83218 | 33041 ft | 513 kts | 138° |
| 2026-04-27 01:57 | 34.49948 | 23.89090 | 33048 ft | 513 kts | 138° |
| 2026-04-27 01:58 | 34.44723 | 23.94982 | 33048 ft | 512 kts | 138° |
| 2026-04-27 01:58 | 34.39503 | 24.00860 | 33049 ft | 513 kts | 138° |
| 2026-04-27 01:59 | 34.34303 | 24.06704 | 33049 ft | 513 kts | 138° |
| 2026-04-27 01:59 | 34.29082 | 24.12561 | 33046 ft | 513 kts | 138° |
| 2026-04-27 02:00 | 34.23853 | 24.18417 | 33047 ft | 513 kts | 138° |
| 2026-04-27 02:00 | 34.18600 | 24.24290 | 33051 ft | 513 kts | 138° |
| 2026-04-27 02:01 | 34.13384 | 24.30111 | 33050 ft | 512 kts | 138° |
| 2026-04-27 02:01 | 34.08138 | 24.35955 | 33046 ft | 512 kts | 138° |
| 2026-04-27 02:02 | 34.02913 | 24.41765 | 33049 ft | 513 kts | 138° |
| 2026-04-27 02:02 | 33.97631 | 24.47588 | 33048 ft | 513 kts | 139° |
| 2026-04-27 02:03 | 33.92330 | 24.53285 | 33048 ft | 513 kts | 139° |
| 2026-04-27 02:03 | 33.87011 | 24.58993 | 33041 ft | 512 kts | 139° |
| 2026-04-27 02:04 | 33.81697 | 24.64690 | 33046 ft | 513 kts | 139° |
| 2026-04-27 02:04 | 33.76370 | 24.70395 | 33034 ft | 512 kts | 139° |
| 2026-04-27 02:05 | 33.71037 | 24.76097 | 33034 ft | 512 kts | 139° |
| 2026-04-27 02:05 | 33.65718 | 24.81774 | 33038 ft | 514 kts | 139° |
| 2026-04-27 02:06 | 33.60369 | 24.87475 | 33038 ft | 513 kts | 139° |
| 2026-04-27 02:06 | 33.55047 | 24.93137 | 33034 ft | 513 kts | 139° |
| 2026-04-27 02:07 | 33.49672 | 24.98845 | 33042 ft | 514 kts | 139° |
| 2026-04-27 02:07 | 33.44346 | 25.04492 | 33041 ft | 514 kts | 139° |
| 2026-04-27 02:08 | 33.38990 | 25.10161 | 33049 ft | 515 kts | 139° |
| 2026-04-27 02:08 | 33.33617 | 25.15838 | 33048 ft | 516 kts | 139° |
| 2026-04-27 02:09 | 33.28263 | 25.21486 | 33046 ft | 514 kts | 139° |
| 2026-04-27 02:09 | 33.22889 | 25.27145 | 33045 ft | 514 kts | 139° |
| 2026-04-27 02:10 | 33.17529 | 25.32780 | 33049 ft | 516 kts | 139° |
| 2026-04-27 02:10 | 33.12127 | 25.38449 | 33048 ft | 516 kts | 139° |
| 2026-04-27 02:11 | 33.06757 | 25.44075 | 33050 ft | 516 kts | 139° |
| 2026-04-27 02:11 | 33.01353 | 25.49727 | 33054 ft | 517 kts | 139° |
| 2026-04-27 02:12 | 32.95956 | 25.55362 | 33052 ft | 516 kts | 139° |
| 2026-04-27 02:12 | 32.90570 | 25.60976 | 33049 ft | 518 kts | 139° |
| 2026-04-27 02:13 | 32.85130 | 25.66637 | 33034 ft | 518 kts | 140° |
| 2026-04-27 02:13 | 32.79692 | 25.72287 | 33036 ft | 517 kts | 139° |
| 2026-04-27 02:14 | 32.74299 | 25.77880 | 33039 ft | 518 kts | 140° |
| 2026-04-27 02:14 | 32.68850 | 25.83522 | 33033 ft | 518 kts | 139° |
| 2026-04-27 02:15 | 32.63429 | 25.89125 | 33030 ft | 519 kts | 140° |
| 2026-04-27 02:15 | 32.57990 | 25.94738 | 33030 ft | 518 kts | 139° |
| 2026-04-27 02:16 | 32.52564 | 26.00327 | 33027 ft | 520 kts | 139° |
| 2026-04-27 02:16 | 32.47105 | 26.05942 | 33025 ft | 519 kts | 139° |
| 2026-04-27 02:17 | 32.41657 | 26.11535 | 33027 ft | 520 kts | 139° |
| 2026-04-27 02:17 | 32.36160 | 26.17170 | 33033 ft | 519 kts | 139° |
| 2026-04-27 02:18 | 32.30729 | 26.22728 | 33029 ft | 520 kts | 139° |
| 2026-04-27 02:18 | 32.25233 | 26.28343 | 33023 ft | 520 kts | 139° |
| 2026-04-27 02:19 | 32.19777 | 26.33907 | 33024 ft | 520 kts | 139° |
| 2026-04-27 02:19 | 32.14306 | 26.39478 | 33028 ft | 520 kts | 139° |
| 2026-04-27 02:20 | 32.08827 | 26.45049 | 33026 ft | 522 kts | 139° |
| 2026-04-27 02:20 | 32.03322 | 26.50635 | 33026 ft | 522 kts | 139° |
| 2026-04-27 02:21 | 31.97802 | 26.56228 | 33031 ft | 523 kts | 139° |
| 2026-04-27 02:21 | 31.92299 | 26.61795 | 33022 ft | 523 kts | 139° |
| 2026-04-27 02:22 | 31.86776 | 26.67373 | 33012 ft | 524 kts | 140° |
| 2026-04-27 02:22 | 31.81217 | 26.72978 | 33017 ft | 522 kts | 140° |
| 2026-04-27 02:23 | 31.75664 | 26.78568 | 33018 ft | 525 kts | 140° |
| 2026-04-27 02:23 | 31.70126 | 26.84134 | 33017 ft | 523 kts | 139° |
| 2026-04-27 02:24 | 31.64626 | 26.89653 | 33021 ft | 524 kts | 140° |
| 2026-04-27 02:24 | 31.59058 | 26.95230 | 33018 ft | 525 kts | 140° |
| 2026-04-27 02:25 | 31.53477 | 27.00811 | 33021 ft | 524 kts | 139° |
| 2026-04-27 02:25 | 31.47934 | 27.06346 | 33025 ft | 525 kts | 139° |
| 2026-04-27 02:26 | 31.42366 | 27.11896 | 33025 ft | 526 kts | 140° |
| 2026-04-27 02:26 | 31.36768 | 27.17467 | 33035 ft | 526 kts | 139° |
| 2026-04-27 02:27 | 31.30906 | 27.22567 | 33034 ft | 524 kts | 152° |
| 2026-04-27 02:27 | 31.24357 | 27.26310 | 33035 ft | 525 kts | 156° |
| 2026-04-27 02:28 | 31.17753 | 27.29924 | 33035 ft | 524 kts | 156° |
| 2026-04-27 02:28 | 31.11142 | 27.33522 | 33032 ft | 525 kts | 156° |
| 2026-04-27 02:29 | 31.04485 | 27.37133 | 33033 ft | 525 kts | 156° |
| 2026-04-27 02:29 | 30.97887 | 27.40703 | 33033 ft | 525 kts | 156° |
| 2026-04-27 02:30 | 30.91496 | 27.44911 | 33027 ft | 527 kts | 143° |
| 2026-04-27 02:30 | 30.85755 | 27.50183 | 33011 ft | 527 kts | 141° |
| 2026-04-27 02:31 | 30.79984 | 27.55541 | 33019 ft | 528 kts | 141° |
| 2026-04-27 02:31 | 30.74256 | 27.60848 | 33022 ft | 528 kts | 142° |
| 2026-04-27 02:32 | 30.68501 | 27.66168 | 33022 ft | 528 kts | 142° |
| 2026-04-27 02:32 | 30.62755 | 27.71472 | 33017 ft | 527 kts | 142° |
| 2026-04-27 02:33 | 30.56992 | 27.76781 | 33017 ft | 527 kts | 143° |
| 2026-04-27 02:33 | 30.51243 | 27.82069 | 33013 ft | 530 kts | 143° |
| 2026-04-27 02:34 | 30.45480 | 27.87361 | 33013 ft | 528 kts | 143° |
| 2026-04-27 02:34 | 30.39777 | 27.92591 | 33008 ft | 525 kts | 143° |
| 2026-04-27 02:35 | 30.34012 | 27.97868 | 33007 ft | 527 kts | 143° |
| 2026-04-27 02:35 | 30.28257 | 28.03128 | 33007 ft | 528 kts | 143° |
| 2026-04-27 02:36 | 30.22521 | 28.08364 | 32998 ft | 525 kts | 143° |
| 2026-04-27 02:36 | 30.16775 | 28.13599 | 33014 ft | 525 kts | 143° |
| 2026-04-27 02:37 | 30.11038 | 28.18819 | 33006 ft | 524 kts | 143° |
| 2026-04-27 02:37 | 30.05300 | 28.24032 | 33005 ft | 523 kts | 143° |
| 2026-04-27 02:38 | 29.99604 | 28.29199 | 33010 ft | 522 kts | 143° |
| 2026-04-27 02:38 | 29.93862 | 28.34399 | 33015 ft | 524 kts | 144° |
| 2026-04-27 02:39 | 29.88124 | 28.39633 | 33003 ft | 526 kts | 141° |
| 2026-04-27 02:39 | 29.83222 | 28.45901 | 33012 ft | 531 kts | 128° |
| 2026-04-27 02:40 | 29.78733 | 28.52629 | 32995 ft | 531 kts | 128° |
| 2026-04-27 02:40 | 29.74214 | 28.59392 | 33010 ft | 533 kts | 129° |
| 2026-04-27 02:41 | 29.69656 | 28.66193 | 32999 ft | 534 kts | 129° |
| 2026-04-27 02:41 | 29.65128 | 28.72932 | 32988 ft | 535 kts | 129° |
| 2026-04-27 02:42 | 29.60568 | 28.79710 | 32998 ft | 536 kts | 129° |
| 2026-04-27 02:42 | 29.56004 | 28.86482 | 32994 ft | 538 kts | 129° |
| 2026-04-27 02:43 | 29.51429 | 28.93257 | 33023 ft | 538 kts | 130° |
| 2026-04-27 02:43 | 29.46858 | 29.00017 | 33000 ft | 536 kts | 130° |
| 2026-04-27 02:44 | 29.42124 | 29.06704 | 32999 ft | 535 kts | 137° |
| 2026-04-27 02:44 | 29.36451 | 29.12161 | 32997 ft | 530 kts | 147° |
| 2026-04-27 02:45 | 29.30570 | 29.17276 | 32985 ft | 533 kts | 147° |
| 2026-04-27 02:45 | 29.24636 | 29.22424 | 33014 ft | 536 kts | 147° |
| 2026-04-27 02:46 | 29.18699 | 29.27569 | 33002 ft | 533 kts | 147° |
| 2026-04-27 02:46 | 29.12795 | 29.32676 | 33017 ft | 535 kts | 147° |
| 2026-04-27 02:47 | 29.06812 | 29.37709 | 33008 ft | 533 kts | 149° |
| 2026-04-27 02:47 | 29.00765 | 29.42725 | 32993 ft | 533 kts | 149° |
| 2026-04-27 02:48 | 28.94737 | 29.47724 | 33013 ft | 536 kts | 149° |
| 2026-04-27 02:48 | 28.88736 | 29.52699 | 33017 ft | 534 kts | 149° |
| 2026-04-27 02:49 | 28.82706 | 29.57692 | 33022 ft | 535 kts | 149° |
| 2026-04-27 02:49 | 28.76690 | 29.62666 | 33026 ft | 537 kts | 149° |
| 2026-04-27 02:50 | 28.70617 | 29.67682 | 33012 ft | 536 kts | 150° |
| 2026-04-27 02:50 | 28.64600 | 29.72644 | 33007 ft | 535 kts | 150° |
| 2026-04-27 02:51 | 28.58580 | 29.77603 | 33013 ft | 534 kts | 150° |
| 2026-04-27 02:51 | 28.52519 | 29.82586 | 33027 ft | 535 kts | 150° |
| 2026-04-27 02:52 | 28.46506 | 29.87523 | 33023 ft | 535 kts | 150° |
| 2026-04-27 02:52 | 28.40483 | 29.92464 | 33029 ft | 532 kts | 150° |
| 2026-04-27 02:53 | 28.34427 | 29.97421 | 33022 ft | 536 kts | 150° |
| 2026-04-27 02:53 | 28.28400 | 30.02350 | 33020 ft | 536 kts | 151° |
| 2026-04-27 02:54 | 28.22356 | 30.07286 | 33012 ft | 533 kts | 151° |
| 2026-04-27 02:54 | 28.16296 | 30.12225 | 33015 ft | 535 kts | 151° |
| 2026-04-27 02:55 | 28.10266 | 30.17137 | 33014 ft | 532 kts | 151° |
| 2026-04-27 02:55 | 28.04210 | 30.22058 | 33017 ft | 533 kts | 151° |
| 2026-04-27 02:56 | 27.98168 | 30.26965 | 33012 ft | 533 kts | 151° |
| 2026-04-27 02:56 | 27.92147 | 30.31846 | 32988 ft | 532 kts | 152° |
| 2026-04-27 02:57 | 27.86090 | 30.36750 | 33010 ft | 533 kts | 152° |
| 2026-04-27 02:57 | 27.80052 | 30.41632 | 33020 ft | 535 kts | 152° |
| 2026-04-27 02:58 | 27.74000 | 30.46518 | 33026 ft | 533 kts | 152° |
| 2026-04-27 02:58 | 27.67980 | 30.51372 | 33015 ft | 533 kts | 152° |
| 2026-04-27 02:59 | 27.61895 | 30.56269 | 33014 ft | 535 kts | 152° |
| 2026-04-27 02:59 | 27.55856 | 30.61125 | 33026 ft | 535 kts | 152° |
| 2026-04-27 03:00 | 27.49804 | 30.65983 | 33011 ft | 536 kts | 153° |
| 2026-04-27 03:00 | 27.43714 | 30.70867 | 33003 ft | 535 kts | 153° |
| 2026-04-27 03:01 | 27.37642 | 30.75729 | 33006 ft | 534 kts | 153° |
| 2026-04-27 03:01 | 27.31607 | 30.80553 | 32995 ft | 538 kts | 153° |
| 2026-04-27 03:02 | 27.25544 | 30.85396 | 33008 ft | 535 kts | 153° |
| 2026-04-27 03:02 | 27.19488 | 30.90226 | 33032 ft | 534 kts | 153° |
| 2026-04-27 03:03 | 27.10371 | 30.97483 | 33034 ft | 531 kts | 153° |
| 2026-04-27 03:04 | 27.04336 | 31.02397 | 33021 ft | 542 kts | 148° |
| 2026-04-27 03:04 | 26.99122 | 31.08641 | 33057 ft | 557 kts | 136° |
| 2026-04-27 03:05 | 26.94285 | 31.15350 | 33061 ft | 556 kts | 136° |
| 2026-04-27 03:05 | 26.89415 | 31.22088 | 33012 ft | 553 kts | 136° |
| 2026-04-27 03:06 | 26.84531 | 31.28818 | 33034 ft | 556 kts | 136° |
| 2026-04-27 03:06 | 26.79678 | 31.35488 | 33016 ft | 554 kts | 136° |
| 2026-04-27 03:07 | 26.74781 | 31.42203 | 33037 ft | 555 kts | 136° |
| 2026-04-27 03:07 | 26.69913 | 31.48869 | 33059 ft | 555 kts | 136° |
| 2026-04-27 03:08 | 26.65012 | 31.55565 | 33018 ft | 555 kts | 137° |
| 2026-04-27 03:08 | 26.60129 | 31.62224 | 33022 ft | 558 kts | 136° |
| 2026-04-27 03:09 | 26.55213 | 31.68923 | 33004 ft | 553 kts | 137° |
| 2026-04-27 03:09 | 26.50300 | 31.75601 | 32982 ft | 558 kts | 137° |
| 2026-04-27 03:10 | 26.45412 | 31.82241 | 32996 ft | 556 kts | 137° |
| 2026-04-27 03:10 | 26.40513 | 31.88884 | 32991 ft | 554 kts | 137° |
| 2026-04-27 03:11 | 26.35591 | 31.95547 | 32993 ft | 556 kts | 137° |
| 2026-04-27 03:11 | 26.30698 | 32.02161 | 32987 ft | 558 kts | 137° |
| 2026-04-27 03:12 | 26.25773 | 32.08810 | 32997 ft | 557 kts | 137° |
| 2026-04-27 03:12 | 26.20817 | 32.15490 | 32998 ft | 557 kts | 137° |
| 2026-04-27 03:13 | 26.15877 | 32.22138 | 33002 ft | 558 kts | 137° |
| 2026-04-27 03:13 | 26.10922 | 32.28796 | 33010 ft | 560 kts | 137° |
| 2026-04-27 03:14 | 26.05960 | 32.35458 | 33010 ft | 560 kts | 138° |
| 2026-04-27 03:14 | 26.01006 | 32.42096 | 32996 ft | 559 kts | 138° |
| 2026-04-27 03:15 | 25.96044 | 32.48735 | 33003 ft | 560 kts | 138° |
| 2026-04-27 03:15 | 25.91060 | 32.55391 | 32997 ft | 563 kts | 137° |
| 2026-04-27 03:16 | 25.86029 | 32.62105 | 33001 ft | 563 kts | 137° |
| 2026-04-27 03:16 | 25.81024 | 32.68773 | 32983 ft | 562 kts | 138° |
| 2026-04-27 03:17 | 25.76024 | 32.75427 | 32974 ft | 563 kts | 138° |
| 2026-04-27 03:17 | 25.71475 | 32.82602 | 32979 ft | 573 kts | 130° |
| 2026-04-27 03:18 | 25.67112 | 32.89949 | 32979 ft | 570 kts | 130° |
| 2026-04-27 03:18 | 25.62743 | 32.97282 | 32988 ft | 573 kts | 130° |
| 2026-04-27 03:19 | 25.58357 | 33.04626 | 32986 ft | 574 kts | 130° |
| 2026-04-27 03:19 | 25.53968 | 33.11957 | 33003 ft | 572 kts | 131° |
| 2026-04-27 03:20 | 25.49571 | 33.19286 | 33000 ft | 571 kts | 130° |
| 2026-04-27 03:20 | 25.45184 | 33.26583 | 32997 ft | 573 kts | 131° |
| 2026-04-27 03:21 | 25.40802 | 33.33866 | 32998 ft | 570 kts | 131° |
| 2026-04-27 03:21 | 25.36392 | 33.41177 | 32991 ft | 572 kts | 131° |
| 2026-04-27 03:22 | 25.32013 | 33.48431 | 32995 ft | 568 kts | 130° |
| 2026-04-27 03:22 | 25.27622 | 33.55693 | 33002 ft | 567 kts | 131° |
| 2026-04-27 03:23 | 25.23245 | 33.62918 | 33006 ft | 569 kts | 130° |
| 2026-04-27 03:23 | 25.18831 | 33.70199 | 32993 ft | 567 kts | 131° |
| 2026-04-27 03:24 | 25.14475 | 33.77371 | 32990 ft | 567 kts | 131° |
| 2026-04-27 03:24 | 25.10060 | 33.84627 | 32989 ft | 570 kts | 131° |
| 2026-04-27 03:25 | 25.05657 | 33.91857 | 32989 ft | 566 kts | 131° |
| 2026-04-27 03:25 | 25.01280 | 33.99028 | 32991 ft | 568 kts | 131° |
| 2026-04-27 03:26 | 24.96883 | 34.06224 | 32994 ft | 568 kts | 131° |
| 2026-04-27 03:26 | 24.92482 | 34.13418 | 32986 ft | 567 kts | 131° |
| 2026-04-27 03:27 | 24.88040 | 34.20663 | 32994 ft | 567 kts | 131° |
| 2026-04-27 03:27 | 24.83625 | 34.27858 | 32997 ft | 568 kts | 131° |
| 2026-04-27 03:28 | 24.79227 | 34.35012 | 32997 ft | 564 kts | 131° |
| 2026-04-27 03:28 | 24.74823 | 34.42166 | 32999 ft | 566 kts | 131° |
| 2026-04-27 03:29 | 24.70414 | 34.49316 | 33002 ft | 568 kts | 131° |
| 2026-04-27 03:29 | 24.65986 | 34.56490 | 33004 ft | 564 kts | 131° |
| 2026-04-27 03:30 | 24.61592 | 34.63593 | 32993 ft | 565 kts | 131° |
| 2026-04-27 03:30 | 24.57173 | 34.70731 | 32971 ft | 563 kts | 131° |
| 2026-04-27 03:31 | 24.52763 | 34.77839 | 32970 ft | 565 kts | 131° |
| 2026-04-27 03:31 | 24.48365 | 34.84921 | 32967 ft | 565 kts | 131° |
| 2026-04-27 03:32 | 24.43930 | 34.92052 | 32971 ft | 563 kts | 131° |
| 2026-04-27 03:32 | 24.39530 | 34.99117 | 32978 ft | 563 kts | 131° |
| 2026-04-27 03:33 | 24.35128 | 35.06173 | 32985 ft | 562 kts | 131° |
| 2026-04-27 03:33 | 24.30737 | 35.13203 | 32980 ft | 559 kts | 131° |
| 2026-04-27 03:34 | 24.26329 | 35.20247 | 32968 ft | 563 kts | 131° |
| 2026-04-27 03:34 | 24.21892 | 35.27331 | 32951 ft | 560 kts | 131° |
| 2026-04-27 03:35 | 24.17491 | 35.34344 | 32938 ft | 563 kts | 131° |
| 2026-04-27 03:35 | 24.13075 | 35.41376 | 32937 ft | 561 kts | 131° |
| 2026-04-27 03:36 | 24.08670 | 35.48377 | 32932 ft | 561 kts | 131° |
| 2026-04-27 03:36 | 24.04239 | 35.55409 | 32921 ft | 560 kts | 131° |
| 2026-04-27 03:37 | 23.99823 | 35.62410 | 32925 ft | 558 kts | 131° |
| 2026-04-27 03:37 | 23.95404 | 35.69401 | 32897 ft | 560 kts | 132° |
| 2026-04-27 03:38 | 23.90999 | 35.76355 | 32893 ft | 560 kts | 131° |
| 2026-04-27 03:38 | 23.86574 | 35.83331 | 32895 ft | 559 kts | 131° |
| 2026-04-27 03:39 | 23.82149 | 35.90297 | 32897 ft | 560 kts | 131° |
| 2026-04-27 03:39 | 23.77689 | 35.97309 | 32896 ft | 561 kts | 131° |
| 2026-04-27 03:40 | 23.73270 | 36.04250 | 32881 ft | 557 kts | 131° |
| 2026-04-27 03:40 | 23.68833 | 36.11204 | 32891 ft | 558 kts | 131° |
| 2026-04-27 03:41 | 23.64395 | 36.18154 | 32883 ft | 558 kts | 131° |
| 2026-04-27 03:41 | 23.59948 | 36.25106 | 32883 ft | 561 kts | 131° |
| 2026-04-27 03:42 | 23.55541 | 36.31991 | 32890 ft | 556 kts | 131° |
| 2026-04-27 03:42 | 23.51099 | 36.38914 | 32884 ft | 558 kts | 131° |
| 2026-04-27 03:43 | 23.46640 | 36.45857 | 32888 ft | 560 kts | 131° |
| 2026-04-27 03:43 | 23.42179 | 36.52795 | 32884 ft | 556 kts | 131° |
| 2026-04-27 03:44 | 23.37769 | 36.59646 | 32887 ft | 555 kts | 131° |
| 2026-04-27 03:44 | 23.33321 | 36.66542 | 32871 ft | 557 kts | 131° |
| 2026-04-27 03:45 | 23.28852 | 36.73463 | 32868 ft | 556 kts | 131° |
| 2026-04-27 03:45 | 23.24407 | 36.80339 | 32870 ft | 557 kts | 131° |
| 2026-04-27 03:46 | 23.19953 | 36.87218 | 32869 ft | 557 kts | 131° |
| 2026-04-27 03:46 | 23.15539 | 36.94028 | 32869 ft | 555 kts | 131° |
| 2026-04-27 03:47 | 23.11061 | 37.00925 | 32868 ft | 555 kts | 131° |
| 2026-04-27 03:47 | 23.06617 | 37.07763 | 32868 ft | 554 kts | 131° |
| 2026-04-27 03:48 | 23.02185 | 37.14572 | 32869 ft | 554 kts | 131° |
| 2026-04-27 03:48 | 22.97743 | 37.21363 | 32869 ft | 555 kts | 131° |
| 2026-04-27 03:49 | 22.93260 | 37.28200 | 32867 ft | 554 kts | 131° |
| 2026-04-27 03:49 | 22.88800 | 37.34995 | 32869 ft | 554 kts | 131° |
| 2026-04-27 03:50 | 22.84330 | 37.41795 | 32865 ft | 554 kts | 131° |
| 2026-04-27 03:50 | 22.79865 | 37.48581 | 32860 ft | 553 kts | 131° |
| 2026-04-27 03:51 | 22.75394 | 37.55366 | 32859 ft | 553 kts | 131° |
| 2026-04-27 03:51 | 22.70922 | 37.62144 | 32860 ft | 553 kts | 130° |
| 2026-04-27 03:52 | 22.66458 | 37.68950 | 32841 ft | 550 kts | 130° |
| 2026-04-27 03:52 | 22.62031 | 37.75706 | 32842 ft | 552 kts | 130° |
| 2026-04-27 03:53 | 22.57608 | 37.82445 | 32844 ft | 551 kts | 131° |
| 2026-04-27 03:53 | 22.53170 | 37.89198 | 32845 ft | 550 kts | 130° |
| 2026-04-27 03:54 | 22.48718 | 37.95961 | 32847 ft | 552 kts | 130° |
| 2026-04-27 03:54 | 22.44263 | 38.02721 | 32847 ft | 551 kts | 130° |
| 2026-04-27 03:55 | 22.39826 | 38.09443 | 32850 ft | 552 kts | 130° |
| 2026-04-27 03:55 | 22.35381 | 38.16171 | 32851 ft | 552 kts | 130° |
| 2026-04-27 03:56 | 22.30924 | 38.22907 | 32853 ft | 551 kts | 130° |
| 2026-04-27 03:56 | 22.26471 | 38.29628 | 32853 ft | 551 kts | 130° |
| 2026-04-27 03:57 | 22.22009 | 38.36356 | 32854 ft | 552 kts | 130° |
| 2026-04-27 03:57 | 22.17567 | 38.43043 | 32856 ft | 550 kts | 130° |
| 2026-04-27 03:58 | 22.13090 | 38.49774 | 32856 ft | 551 kts | 130° |
| 2026-04-27 03:58 | 22.08637 | 38.56461 | 32859 ft | 551 kts | 130° |
| 2026-04-27 03:59 | 22.04167 | 38.63165 | 32858 ft | 550 kts | 130° |
| 2026-04-27 03:59 | 21.99705 | 38.69850 | 32841 ft | 550 kts | 130° |
| 2026-04-27 04:00 | 21.95250 | 38.76514 | 32838 ft | 551 kts | 130° |
| 2026-04-27 04:00 | 21.90785 | 38.83186 | 32829 ft | 550 kts | 130° |
| 2026-04-27 04:01 | 21.86300 | 38.89880 | 32822 ft | 551 kts | 130° |
| 2026-04-27 04:01 | 21.81814 | 38.96567 | 32824 ft | 552 kts | 130° |
| 2026-04-27 04:02 | 21.77047 | 39.02970 | 32818 ft | 543 kts | 141° |
| 2026-04-27 04:02 | 21.71159 | 39.07795 | 32821 ft | 527 kts | 157° |
| 2026-04-27 04:03 | 21.64448 | 39.10773 | 32831 ft | 514 kts | 172° |
| 2026-04-27 04:03 | 21.57531 | 39.11819 | 32827 ft | 497 kts | 186° |
| 2026-04-27 04:04 | 21.50595 | 39.11726 | 32826 ft | 495 kts | 188° |
| 2026-04-27 04:04 | 21.43719 | 39.11577 | 32825 ft | 494 kts | 188° |
| 2026-04-27 04:05 | 21.36810 | 39.11414 | 32835 ft | 495 kts | 188° |
| 2026-04-27 04:05 | 21.29902 | 39.11245 | 32829 ft | 498 kts | 188° |
| 2026-04-27 04:06 | 21.23004 | 39.11075 | 32830 ft | 496 kts | 188° |
| 2026-04-27 04:06 | 21.16055 | 39.10900 | 32829 ft | 499 kts | 188° |
| 2026-04-27 04:07 | 21.05661 | 39.10638 | 32835 ft | 498 kts | 188° |
| 2026-04-27 04:07 | 20.98720 | 39.10463 | 32837 ft | 495 kts | 188° |
| 2026-04-27 04:08 | 20.91799 | 39.10287 | 32837 ft | 499 kts | 188° |
| 2026-04-27 04:08 | 20.84847 | 39.10112 | 32839 ft | 498 kts | 187° |
| 2026-04-27 04:09 | 20.77911 | 39.09936 | 32845 ft | 498 kts | 187° |
| 2026-04-27 04:09 | 20.70980 | 39.09761 | 32848 ft | 497 kts | 187° |
| 2026-04-27 04:10 | 20.64055 | 39.09587 | 32850 ft | 496 kts | 187° |
| 2026-04-27 04:10 | 20.57157 | 39.09414 | 32849 ft | 495 kts | 187° |
| 2026-04-27 04:11 | 20.50257 | 39.09239 | 32848 ft | 497 kts | 187° |
| 2026-04-27 04:11 | 20.43299 | 39.09064 | 32856 ft | 498 kts | 187° |
| 2026-04-27 04:12 | 20.36388 | 39.08891 | 32849 ft | 494 kts | 187° |
| 2026-04-27 04:12 | 20.29474 | 39.08717 | 32850 ft | 496 kts | 187° |
| 2026-04-27 04:13 | 20.22581 | 39.08544 | 32851 ft | 496 kts | 187° |
| 2026-04-27 04:13 | 20.15685 | 39.08372 | 32849 ft | 495 kts | 187° |
| 2026-04-27 04:14 | 20.08781 | 39.08199 | 32847 ft | 496 kts | 187° |
| 2026-04-27 04:14 | 20.01864 | 39.08026 | 32849 ft | 495 kts | 187° |
| 2026-04-27 04:15 | 19.95002 | 39.07855 | 32840 ft | 493 kts | 187° |
| 2026-04-27 04:15 | 19.88051 | 39.07681 | 32833 ft | 495 kts | 187° |
| 2026-04-27 04:16 | 19.81167 | 39.07509 | 32838 ft | 496 kts | 187° |
| 2026-04-27 04:16 | 19.74285 | 39.07338 | 32838 ft | 494 kts | 186° |
| 2026-04-27 04:17 | 19.67367 | 39.07165 | 32840 ft | 495 kts | 186° |
| 2026-04-27 04:17 | 19.60453 | 39.06993 | 32837 ft | 495 kts | 186° |
| 2026-04-27 04:18 | 19.53544 | 39.06821 | 32838 ft | 496 kts | 186° |
| 2026-04-27 04:18 | 19.46643 | 39.06650 | 32840 ft | 495 kts | 186° |
| 2026-04-27 04:19 | 19.39739 | 39.06479 | 32845 ft | 496 kts | 186° |
| 2026-04-27 04:19 | 19.32833 | 39.06307 | 32850 ft | 495 kts | 186° |
| 2026-04-27 04:20 | 19.25935 | 39.06137 | 32849 ft | 495 kts | 186° |
| 2026-04-27 04:20 | 19.19041 | 39.05966 | 32850 ft | 494 kts | 186° |
| 2026-04-27 04:21 | 19.12152 | 39.05795 | 32851 ft | 496 kts | 186° |
| 2026-04-27 04:21 | 19.05277 | 39.05436 | 32840 ft | 495 kts | 188° |
| 2026-04-27 04:22 | 18.98347 | 39.05034 | 32844 ft | 495 kts | 188° |
| 2026-04-27 04:22 | 18.91481 | 39.04643 | 32848 ft | 496 kts | 187° |
| 2026-04-27 04:23 | 18.84544 | 39.04253 | 32850 ft | 496 kts | 187° |
| 2026-04-27 04:23 | 18.77683 | 39.03869 | 32855 ft | 495 kts | 187° |
| 2026-04-27 04:24 | 18.70746 | 39.03482 | 32849 ft | 497 kts | 187° |
| 2026-04-27 04:24 | 18.63853 | 39.03099 | 32850 ft | 498 kts | 187° |
| 2026-04-27 04:25 | 18.56925 | 39.02715 | 32851 ft | 498 kts | 187° |
| 2026-04-27 04:25 | 18.49954 | 39.02329 | 32847 ft | 498 kts | 187° |
| 2026-04-27 04:26 | 18.43030 | 39.01946 | 32850 ft | 499 kts | 187° |
| 2026-04-27 04:26 | 18.36080 | 39.01562 | 32853 ft | 499 kts | 187° |
| 2026-04-27 04:27 | 18.29111 | 39.01177 | 32850 ft | 500 kts | 187° |
| 2026-04-27 04:27 | 18.22177 | 39.00794 | 32850 ft | 500 kts | 187° |
| 2026-04-27 04:28 | 18.15219 | 39.00419 | 32852 ft | 501 kts | 186° |
| 2026-04-27 04:28 | 18.08151 | 39.00166 | 32853 ft | 503 kts | 186° |
| 2026-04-27 04:29 | 18.01177 | 38.99924 | 32865 ft | 501 kts | 186° |
| 2026-04-27 04:29 | 17.94136 | 38.99676 | 32870 ft | 500 kts | 186° |
| 2026-04-27 04:30 | 17.87147 | 38.99426 | 32868 ft | 503 kts | 186° |
| 2026-04-27 04:30 | 17.80126 | 38.99175 | 32868 ft | 503 kts | 186° |
| 2026-04-27 04:31 | 17.73164 | 38.98926 | 32868 ft | 504 kts | 186° |
| 2026-04-27 04:31 | 17.66112 | 38.98673 | 32868 ft | 505 kts | 186° |
| 2026-04-27 04:32 | 17.59074 | 38.98421 | 32863 ft | 504 kts | 186° |
| 2026-04-27 04:32 | 17.52043 | 38.98169 | 32859 ft | 504 kts | 186° |
| 2026-04-27 04:33 | 17.45038 | 38.98918 | 32856 ft | 513 kts | 168° |
| 2026-04-27 04:33 | 17.38398 | 39.01814 | 32851 ft | 521 kts | 150° |
| 2026-04-27 04:34 | 17.32631 | 39.06398 | 32858 ft | 524 kts | 142° |
| 2026-04-27 04:34 | 17.27000 | 39.11299 | 32857 ft | 523 kts | 142° |
| 2026-04-27 04:35 | 17.21390 | 39.16160 | 32855 ft | 524 kts | 142° |
| 2026-04-27 04:35 | 17.15772 | 39.21013 | 32859 ft | 524 kts | 142° |
| 2026-04-27 04:36 | 17.10160 | 39.25851 | 32856 ft | 522 kts | 142° |
| 2026-04-27 04:36 | 17.04542 | 39.30687 | 32854 ft | 522 kts | 142° |
| 2026-04-27 04:37 | 16.98939 | 39.35503 | 32854 ft | 522 kts | 142° |
| 2026-04-27 04:37 | 16.93330 | 39.40319 | 32855 ft | 523 kts | 141° |
| 2026-04-27 04:38 | 16.87695 | 39.45154 | 32853 ft | 522 kts | 141° |
| 2026-04-27 04:38 | 16.82095 | 39.49954 | 32853 ft | 523 kts | 142° |
| 2026-04-27 04:39 | 16.76469 | 39.54773 | 32856 ft | 521 kts | 141° |
| 2026-04-27 04:39 | 16.70882 | 39.59555 | 32857 ft | 521 kts | 141° |
| 2026-04-27 04:40 | 16.65280 | 39.64345 | 32858 ft | 521 kts | 141° |
| 2026-04-27 04:40 | 16.59673 | 39.69135 | 32853 ft | 521 kts | 141° |
| 2026-04-27 04:41 | 16.54038 | 39.73947 | 32851 ft | 521 kts | 142° |
| 2026-04-27 04:41 | 16.48418 | 39.78741 | 32851 ft | 521 kts | 141° |
| 2026-04-27 04:42 | 16.42818 | 39.83515 | 32854 ft | 520 kts | 141° |
| 2026-04-27 04:42 | 16.37185 | 39.88312 | 32857 ft | 520 kts | 141° |
| 2026-04-27 04:43 | 16.31584 | 39.93080 | 32859 ft | 520 kts | 141° |
| 2026-04-27 04:43 | 16.26000 | 39.97829 | 32864 ft | 519 kts | 141° |
| 2026-04-27 04:44 | 16.20397 | 40.02591 | 32868 ft | 520 kts | 141° |
| 2026-04-27 04:44 | 16.14816 | 40.07330 | 32870 ft | 519 kts | 141° |
| 2026-04-27 04:45 | 16.09211 | 40.12086 | 32872 ft | 518 kts | 141° |
| 2026-04-27 04:45 | 16.03605 | 40.16839 | 32871 ft | 519 kts | 141° |
| 2026-04-27 04:46 | 15.98023 | 40.21569 | 32872 ft | 519 kts | 141° |
| 2026-04-27 04:46 | 15.92440 | 40.26296 | 32872 ft | 518 kts | 141° |
| 2026-04-27 04:47 | 15.86814 | 40.31056 | 32868 ft | 518 kts | 141° |
| 2026-04-27 04:47 | 15.81251 | 40.35759 | 32869 ft | 517 kts | 141° |
| 2026-04-27 04:48 | 15.75681 | 40.40464 | 32869 ft | 518 kts | 141° |
| 2026-04-27 04:48 | 15.70071 | 40.45200 | 32870 ft | 517 kts | 141° |
| 2026-04-27 04:49 | 15.64502 | 40.49898 | 32870 ft | 518 kts | 141° |
| 2026-04-27 04:49 | 15.58884 | 40.54633 | 32871 ft | 517 kts | 141° |
| 2026-04-27 04:50 | 15.53296 | 40.59340 | 32871 ft | 517 kts | 141° |
| 2026-04-27 04:50 | 15.47722 | 40.64031 | 32871 ft | 517 kts | 141° |
| 2026-04-27 04:51 | 15.42155 | 40.68714 | 32863 ft | 517 kts | 141° |
| 2026-04-27 04:51 | 15.36559 | 40.73418 | 32859 ft | 517 kts | 141° |
| 2026-04-27 04:52 | 15.30966 | 40.78115 | 32855 ft | 516 kts | 141° |
| 2026-04-27 04:52 | 15.25387 | 40.82798 | 32852 ft | 517 kts | 141° |
| 2026-04-27 04:53 | 15.19814 | 40.87472 | 32853 ft | 517 kts | 141° |
| 2026-04-27 04:53 | 15.14207 | 40.92171 | 32852 ft | 516 kts | 141° |
| 2026-04-27 04:54 | 15.08660 | 40.96817 | 32852 ft | 515 kts | 141° |
| 2026-04-27 04:54 | 15.03057 | 41.01507 | 32852 ft | 516 kts | 141° |
| 2026-04-27 04:55 | 14.97485 | 41.06163 | 32855 ft | 515 kts | 141° |
| 2026-04-27 04:55 | 14.91894 | 41.10828 | 32856 ft | 516 kts | 141° |
| 2026-04-27 04:56 | 14.86300 | 41.15494 | 32858 ft | 515 kts | 141° |
| 2026-04-27 04:56 | 14.80725 | 41.20141 | 32860 ft | 515 kts | 141° |
| 2026-04-27 04:57 | 14.75121 | 41.24809 | 32866 ft | 515 kts | 141° |
| 2026-04-27 04:57 | 14.69537 | 41.29457 | 32871 ft | 514 kts | 141° |
| 2026-04-27 04:58 | 14.63949 | 41.34106 | 32873 ft | 515 kts | 141° |
| 2026-04-27 04:58 | 14.58370 | 41.38744 | 32875 ft | 515 kts | 141° |
| 2026-04-27 04:59 | 14.52774 | 41.43392 | 32873 ft | 514 kts | 141° |
| 2026-04-27 04:59 | 14.47220 | 41.48003 | 32875 ft | 514 kts | 141° |
| 2026-04-27 05:00 | 14.41636 | 41.52636 | 32874 ft | 514 kts | 141° |
| 2026-04-27 05:00 | 14.36078 | 41.57243 | 32871 ft | 515 kts | 141° |
| 2026-04-27 05:01 | 14.30465 | 41.61894 | 32875 ft | 514 kts | 140° |
| 2026-04-27 05:01 | 14.24864 | 41.66532 | 32876 ft | 514 kts | 141° |
| 2026-04-27 05:02 | 14.19274 | 41.71157 | 32873 ft | 514 kts | 141° |
| 2026-04-27 05:03 | 14.10912 | 41.78071 | 32874 ft | 514 kts | 141° |
| 2026-04-27 05:03 | 14.05338 | 41.82675 | 32874 ft | 514 kts | 141° |
| 2026-04-27 05:04 | 13.99749 | 41.87289 | 32874 ft | 514 kts | 141° |
| 2026-04-27 05:04 | 13.94162 | 41.91898 | 32875 ft | 513 kts | 140° |
| 2026-04-27 05:05 | 13.88602 | 41.96483 | 32874 ft | 512 kts | 140° |
| 2026-04-27 05:05 | 13.83018 | 42.01085 | 32875 ft | 513 kts | 140° |
| 2026-04-27 05:06 | 13.77445 | 42.05673 | 32862 ft | 512 kts | 141° |
| 2026-04-27 05:06 | 13.71909 | 42.10229 | 32865 ft | 511 kts | 141° |
| 2026-04-27 05:07 | 13.66331 | 42.14817 | 32878 ft | 512 kts | 141° |
| 2026-04-27 05:07 | 13.60764 | 42.19368 | 32883 ft | 512 kts | 141° |
| 2026-04-27 05:08 | 13.55180 | 42.23916 | 32879 ft | 510 kts | 141° |
| 2026-04-27 05:08 | 13.49622 | 42.28441 | 32882 ft | 510 kts | 141° |
| 2026-04-27 05:09 | 13.44079 | 42.32952 | 32883 ft | 509 kts | 141° |
| 2026-04-27 05:09 | 13.38505 | 42.37486 | 32883 ft | 509 kts | 141° |
| 2026-04-27 05:10 | 13.32958 | 42.41995 | 32879 ft | 509 kts | 141° |
| 2026-04-27 05:10 | 13.27392 | 42.46518 | 32888 ft | 508 kts | 141° |
| 2026-04-27 05:11 | 13.21880 | 42.50994 | 32892 ft | 507 kts | 141° |
| 2026-04-27 05:11 | 13.16256 | 42.55558 | 33357 ft | 517 kts | 141° |
| 2026-04-27 05:11 | 13.13573 | 42.57734 | 34254 ft | 511 kts | 141° |
| 2026-04-27 05:12 | 13.10781 | 42.59998 | 34852 ft | 509 kts | 141° |
| 2026-04-27 05:12 | 13.04810 | 42.63779 | 34912 ft | 505 kts | 156° |
| 2026-04-27 05:13 | 12.98111 | 42.66145 | 34917 ft | 505 kts | 162° |
| 2026-04-27 05:13 | 12.91330 | 42.68368 | 34919 ft | 505 kts | 162° |
| 2026-04-27 05:14 | 12.84601 | 42.70573 | 34911 ft | 503 kts | 162° |
| 2026-04-27 05:14 | 12.77887 | 42.72772 | 34913 ft | 504 kts | 162° |
| 2026-04-27 05:15 | 12.71195 | 42.74963 | 34920 ft | 505 kts | 162° |
| 2026-04-27 05:15 | 12.64516 | 42.77148 | 34931 ft | 505 kts | 162° |
| 2026-04-27 05:16 | 12.57814 | 42.79332 | 34943 ft | 505 kts | 163° |
| 2026-04-27 05:16 | 12.51042 | 42.81314 | 34967 ft | 504 kts | 164° |
| 2026-04-27 05:17 | 12.44269 | 42.83282 | 34965 ft | 503 kts | 164° |
| 2026-04-27 05:17 | 12.37519 | 42.85249 | 34992 ft | 503 kts | 163° |
| 2026-04-27 05:18 | 12.30767 | 42.87220 | 35004 ft | 502 kts | 163° |
| 2026-04-27 05:18 | 12.24000 | 42.89196 | 35021 ft | 504 kts | 163° |
| 2026-04-27 05:19 | 12.17253 | 42.91166 | 35030 ft | 504 kts | 163° |
| 2026-04-27 05:19 | 12.10450 | 42.93153 | 35042 ft | 503 kts | 163° |
| 2026-04-27 05:20 | 12.03718 | 42.95118 | 35049 ft | 503 kts | 163° |
| 2026-04-27 05:20 | 11.96984 | 42.97083 | 35052 ft | 502 kts | 163° |
| 2026-04-27 05:21 | 11.90223 | 42.99055 | 35026 ft | 502 kts | 163° |
| 2026-04-27 05:21 | 11.83480 | 43.01020 | 34995 ft | 504 kts | 163° |
| 2026-04-27 05:22 | 11.76727 | 43.02988 | 34962 ft | 503 kts | 163° |
| 2026-04-27 05:22 | 11.69993 | 43.04949 | 34947 ft | 503 kts | 163° |
| 2026-04-27 05:23 | 11.63213 | 43.06922 | 34953 ft | 503 kts | 163° |
| 2026-04-27 05:23 | 11.56492 | 43.08883 | 34956 ft | 503 kts | 162° |
| 2026-04-27 05:24 | 11.50068 | 43.11658 | 34960 ft | 501 kts | 153° |
| 2026-04-27 05:24 | 11.43710 | 43.14745 | 34958 ft | 503 kts | 153° |
| 2026-04-27 05:25 | 11.37386 | 43.17813 | 34955 ft | 502 kts | 153° |
| 2026-04-27 05:25 | 11.31095 | 43.20991 | 34949 ft | 501 kts | 152° |
| 2026-04-27 05:26 | 11.24839 | 43.24221 | 34949 ft | 501 kts | 152° |
| 2026-04-27 05:26 | 11.18644 | 43.27410 | 34944 ft | 501 kts | 152° |
| 2026-04-27 05:27 | 11.12386 | 43.30626 | 34942 ft | 501 kts | 152° |
| 2026-04-27 05:27 | 11.06163 | 43.33820 | 34941 ft | 501 kts | 152° |
| 2026-04-27 05:28 | 10.99920 | 43.37020 | 34943 ft | 501 kts | 152° |
| 2026-04-27 05:28 | 10.93678 | 43.40219 | 34945 ft | 500 kts | 152° |
| 2026-04-27 05:29 | 10.87466 | 43.43400 | 34941 ft | 500 kts | 152° |
| 2026-04-27 05:29 | 10.81214 | 43.46600 | 34951 ft | 501 kts | 152° |
| 2026-04-27 05:30 | 10.74990 | 43.49784 | 34952 ft | 500 kts | 152° |
| 2026-04-27 05:30 | 10.68767 | 43.52966 | 34962 ft | 500 kts | 152° |
| 2026-04-27 05:31 | 10.62544 | 43.56146 | 34984 ft | 500 kts | 152° |
| 2026-04-27 05:31 | 10.56305 | 43.59333 | 34998 ft | 499 kts | 152° |
| 2026-04-27 05:32 | 10.50024 | 43.62426 | 34998 ft | 499 kts | 153° |
| 2026-04-27 05:32 | 10.43651 | 43.65468 | 35010 ft | 499 kts | 153° |
| 2026-04-27 05:33 | 10.37352 | 43.68481 | 35019 ft | 498 kts | 153° |
| 2026-04-27 05:33 | 10.31043 | 43.71501 | 35028 ft | 499 kts | 153° |
| 2026-04-27 05:34 | 10.24761 | 43.74509 | 35041 ft | 498 kts | 153° |
| 2026-04-27 05:34 | 10.18463 | 43.77525 | 35061 ft | 498 kts | 153° |
| 2026-04-27 05:35 | 10.12157 | 43.80544 | 35096 ft | 497 kts | 153° |
| 2026-04-27 05:35 | 10.05884 | 43.83546 | 35131 ft | 497 kts | 153° |
| 2026-04-27 05:36 | 9.99650 | 43.86528 | 35161 ft | 496 kts | 153° |
| 2026-04-27 05:36 | 9.93337 | 43.89548 | 35166 ft | 497 kts | 153° |
| 2026-04-27 05:37 | 9.87096 | 43.92531 | 35169 ft | 497 kts | 153° |
| 2026-04-27 05:37 | 9.80795 | 43.95542 | 35172 ft | 498 kts | 153° |
| 2026-04-27 05:38 | 9.74540 | 43.98529 | 35170 ft | 497 kts | 153° |
| 2026-04-27 05:38 | 9.68291 | 44.01513 | 35178 ft | 497 kts | 153° |
| 2026-04-27 05:39 | 9.61991 | 44.04520 | 35188 ft | 497 kts | 153° |
| 2026-04-27 05:39 | 9.55727 | 44.07509 | 35197 ft | 497 kts | 153° |
| 2026-04-27 05:40 | 9.49193 | 44.09792 | 35211 ft | 501 kts | 166° |
| 2026-04-27 05:40 | 9.42342 | 44.11235 | 35210 ft | 501 kts | 167° |
| 2026-04-27 05:41 | 9.35463 | 44.12664 | 35218 ft | 501 kts | 167° |
| 2026-04-27 05:41 | 9.28621 | 44.14086 | 35211 ft | 501 kts | 167° |
| 2026-04-27 05:42 | 9.21765 | 44.15511 | 35211 ft | 501 kts | 167° |
| 2026-04-27 05:42 | 9.14887 | 44.16940 | 35214 ft | 501 kts | 167° |
| 2026-04-27 05:43 | 9.08056 | 44.18360 | 35226 ft | 502 kts | 167° |
| 2026-04-27 05:43 | 9.01204 | 44.19783 | 35222 ft | 502 kts | 167° |
| 2026-04-27 05:44 | 8.94337 | 44.21209 | 35222 ft | 501 kts | 167° |
| 2026-04-27 05:44 | 8.87444 | 44.22735 | 35216 ft | 502 kts | 165° |
| 2026-04-27 05:45 | 8.80649 | 44.24383 | 35211 ft | 501 kts | 165° |
| 2026-04-27 05:45 | 8.73834 | 44.26030 | 35208 ft | 501 kts | 165° |
| 2026-04-27 05:46 | 8.67030 | 44.27667 | 35196 ft | 502 kts | 165° |
| 2026-04-27 05:46 | 8.60223 | 44.29301 | 35187 ft | 501 kts | 165° |
| 2026-04-27 05:47 | 8.53423 | 44.30931 | 35181 ft | 502 kts | 165° |
| 2026-04-27 05:47 | 8.46625 | 44.32559 | 35176 ft | 501 kts | 165° |
| 2026-04-27 05:48 | 8.39828 | 44.34186 | 35173 ft | 502 kts | 165° |
| 2026-04-27 05:48 | 8.33013 | 44.35816 | 35167 ft | 503 kts | 165° |
| 2026-04-27 05:49 | 8.26187 | 44.37448 | 35159 ft | 502 kts | 165° |
| 2026-04-27 05:49 | 8.19374 | 44.39077 | 35152 ft | 500 kts | 164° |
| 2026-04-27 05:50 | 8.12585 | 44.40699 | 35154 ft | 501 kts | 164° |
| 2026-04-27 05:50 | 8.05780 | 44.42324 | 35156 ft | 501 kts | 165° |
| 2026-04-27 05:51 | 7.98955 | 44.43954 | 35159 ft | 503 kts | 164° |
| 2026-04-27 05:51 | 7.92170 | 44.45573 | 35156 ft | 503 kts | 164° |
| 2026-04-27 05:52 | 7.85301 | 44.47212 | 35149 ft | 501 kts | 164° |
| 2026-04-27 05:52 | 7.78553 | 44.48821 | 35150 ft | 500 kts | 164° |
| 2026-04-27 05:53 | 7.71729 | 44.50448 | 35145 ft | 500 kts | 164° |
| 2026-04-27 05:53 | 7.64949 | 44.52064 | 35142 ft | 501 kts | 164° |
| 2026-04-27 05:54 | 7.58173 | 44.53679 | 35134 ft | 500 kts | 164° |
| 2026-04-27 05:54 | 7.51359 | 44.55302 | 35131 ft | 501 kts | 164° |
| 2026-04-27 05:55 | 7.44552 | 44.56923 | 35127 ft | 500 kts | 164° |
| 2026-04-27 05:55 | 7.37772 | 44.58536 | 35127 ft | 499 kts | 164° |
| 2026-04-27 05:56 | 7.31038 | 44.60139 | 35129 ft | 499 kts | 164° |
| 2026-04-27 05:56 | 7.24241 | 44.61756 | 35129 ft | 500 kts | 164° |
| 2026-04-27 05:57 | 7.17466 | 44.63367 | 35124 ft | 500 kts | 164° |
| 2026-04-27 05:57 | 7.10671 | 44.64983 | 35115 ft | 499 kts | 164° |
| 2026-04-27 05:58 | 7.03901 | 44.66592 | 35117 ft | 498 kts | 165° |
| 2026-04-27 05:58 | 6.97109 | 44.68205 | 35109 ft | 497 kts | 165° |
| 2026-04-27 05:59 | 6.90383 | 44.69803 | 35096 ft | 498 kts | 165° |
| 2026-04-27 05:59 | 6.83592 | 44.71415 | 35086 ft | 498 kts | 165° |
| 2026-04-27 06:00 | 6.73440 | 44.73826 | 35073 ft | 498 kts | 164° |
| 2026-04-27 06:00 | 6.66714 | 44.75433 | 35075 ft | 498 kts | 164° |
| 2026-04-27 06:01 | 6.59947 | 44.77064 | 35077 ft | 497 kts | 164° |
| 2026-04-27 06:01 | 6.53232 | 44.78681 | 35076 ft | 497 kts | 164° |
| 2026-04-27 06:02 | 6.46491 | 44.80303 | 35074 ft | 498 kts | 164° |
| 2026-04-27 06:02 | 6.39713 | 44.81934 | 35072 ft | 498 kts | 164° |
| 2026-04-27 06:03 | 6.32940 | 44.83563 | 35065 ft | 497 kts | 164° |
| 2026-04-27 06:03 | 6.26182 | 44.85187 | 35066 ft | 497 kts | 165° |
| 2026-04-27 06:04 | 6.19462 | 44.86802 | 35060 ft | 497 kts | 165° |
| 2026-04-27 06:04 | 6.12664 | 44.88435 | 35056 ft | 497 kts | 165° |
| 2026-04-27 06:05 | 6.05922 | 44.90054 | 35056 ft | 497 kts | 165° |
| 2026-04-27 06:05 | 5.99184 | 44.91672 | 35055 ft | 497 kts | 164° |
| 2026-04-27 06:06 | 5.92425 | 44.93294 | 35053 ft | 497 kts | 165° |
| 2026-04-27 06:06 | 5.85670 | 44.94916 | 35045 ft | 498 kts | 164° |
| 2026-04-27 06:07 | 5.78932 | 44.96532 | 35040 ft | 498 kts | 164° |
| 2026-04-27 06:07 | 5.72144 | 44.98161 | 35033 ft | 498 kts | 164° |
| 2026-04-27 06:08 | 5.65369 | 44.99786 | 35028 ft | 499 kts | 164° |
| 2026-04-27 06:08 | 5.58610 | 45.01406 | 35025 ft | 500 kts | 164° |
| 2026-04-27 06:09 | 5.51833 | 45.03030 | 35022 ft | 500 kts | 164° |
| 2026-04-27 06:09 | 5.45091 | 45.04646 | 35016 ft | 499 kts | 164° |
| 2026-04-27 06:10 | 5.38298 | 45.06274 | 35016 ft | 499 kts | 164° |
| 2026-04-27 06:10 | 5.31547 | 45.07891 | 35003 ft | 500 kts | 164° |
| 2026-04-27 06:11 | 5.24750 | 45.09519 | 34995 ft | 500 kts | 164° |
| 2026-04-27 06:11 | 5.17933 | 45.11151 | 34982 ft | 500 kts | 164° |
| 2026-04-27 06:12 | 5.11144 | 45.12776 | 34975 ft | 500 kts | 164° |
| 2026-04-27 06:12 | 5.04202 | 45.13627 | 34980 ft | 504 kts | 174° |
| 2026-04-27 06:13 | 4.97147 | 45.13992 | 34984 ft | 504 kts | 175° |
| 2026-04-27 06:13 | 4.90139 | 45.14352 | 34989 ft | 504 kts | 175° |
| 2026-04-27 06:14 | 4.83117 | 45.14715 | 34988 ft | 505 kts | 175° |
| 2026-04-27 06:14 | 4.76066 | 45.15080 | 34989 ft | 506 kts | 174° |
| 2026-04-27 06:15 | 4.69020 | 45.15445 | 34989 ft | 504 kts | 174° |
| 2026-04-27 06:15 | 4.61993 | 45.15809 | 34990 ft | 504 kts | 174° |
| 2026-04-27 06:16 | 4.54941 | 45.16175 | 34989 ft | 504 kts | 175° |
| 2026-04-27 06:16 | 4.47917 | 45.16539 | 34989 ft | 505 kts | 174° |
| 2026-04-27 06:17 | 4.40892 | 45.16904 | 34989 ft | 505 kts | 174° |
| 2026-04-27 06:17 | 4.33826 | 45.17271 | 34988 ft | 506 kts | 174° |
| 2026-04-27 06:18 | 4.26791 | 45.17635 | 34986 ft | 505 kts | 174° |
| 2026-04-27 06:18 | 4.19749 | 45.18000 | 34988 ft | 504 kts | 174° |
| 2026-04-27 06:19 | 4.12722 | 45.18365 | 34990 ft | 505 kts | 174° |
| 2026-04-27 06:19 | 4.05687 | 45.18729 | 34991 ft | 505 kts | 174° |
| 2026-04-27 06:20 | 3.98626 | 45.19096 | 34992 ft | 505 kts | 174° |
| 2026-04-27 06:20 | 3.91603 | 45.19459 | 34990 ft | 505 kts | 174° |
| 2026-04-27 06:21 | 3.84575 | 45.19823 | 34988 ft | 504 kts | 174° |
| 2026-04-27 06:21 | 3.77548 | 45.20187 | 34988 ft | 504 kts | 174° |
| 2026-04-27 06:22 | 3.70536 | 45.20551 | 34986 ft | 504 kts | 174° |
| 2026-04-27 06:22 | 3.63486 | 45.20916 | 34982 ft | 504 kts | 174° |
| 2026-04-27 06:23 | 3.56463 | 45.21279 | 34980 ft | 505 kts | 174° |
| 2026-04-27 06:23 | 3.49426 | 45.21643 | 34975 ft | 505 kts | 174° |
| 2026-04-27 06:24 | 3.42384 | 45.22008 | 34975 ft | 503 kts | 174° |
| 2026-04-27 06:24 | 3.35355 | 45.22372 | 34976 ft | 503 kts | 174° |
| 2026-04-27 06:25 | 3.28345 | 45.22734 | 34973 ft | 504 kts | 174° |
| 2026-04-27 06:25 | 3.21347 | 45.23096 | 34973 ft | 504 kts | 174° |
| 2026-04-27 06:26 | 3.14280 | 45.23462 | 34971 ft | 503 kts | 174° |
| 2026-04-27 06:26 | 3.07271 | 45.23825 | 34970 ft | 503 kts | 174° |
| 2026-04-27 06:27 | 3.00279 | 45.24186 | 34973 ft | 504 kts | 174° |
| 2026-04-27 06:27 | 2.93267 | 45.24549 | 34966 ft | 504 kts | 174° |
| 2026-04-27 06:28 | 2.86192 | 45.24915 | 34951 ft | 504 kts | 174° |
| 2026-04-27 06:28 | 2.79202 | 45.25276 | 34948 ft | 505 kts | 174° |
| 2026-04-27 06:29 | 2.72175 | 45.25639 | 34946 ft | 504 kts | 174° |
| 2026-04-27 06:29 | 2.65121 | 45.26004 | 34945 ft | 504 kts | 174° |
| 2026-04-27 06:30 | 2.58115 | 45.26366 | 34945 ft | 505 kts | 174° |
| 2026-04-27 06:30 | 2.51051 | 45.26731 | 34946 ft | 505 kts | 174° |
| 2026-04-27 06:31 | 2.44030 | 45.27094 | 34944 ft | 505 kts | 174° |
| 2026-04-27 06:31 | 2.36969 | 45.27459 | 34946 ft | 505 kts | 174° |
| 2026-04-27 06:32 | 2.29923 | 45.27822 | 34944 ft | 505 kts | 174° |
| 2026-04-27 06:32 | 2.22910 | 45.28185 | 34944 ft | 506 kts | 174° |
| 2026-04-27 06:33 | 2.15813 | 45.28551 | 34940 ft | 507 kts | 174° |
| 2026-04-27 06:33 | 2.08748 | 45.28916 | 34940 ft | 507 kts | 174° |
| 2026-04-27 06:34 | 2.01713 | 45.29279 | 34940 ft | 506 kts | 174° |
| 2026-04-27 06:34 | 1.94690 | 45.29677 | 34937 ft | 506 kts | 174° |
| 2026-04-27 06:35 | 1.87607 | 45.30099 | 34930 ft | 505 kts | 174° |
| 2026-04-27 06:35 | 1.80577 | 45.30516 | 34928 ft | 507 kts | 174° |
| 2026-04-27 06:36 | 1.73525 | 45.30933 | 34926 ft | 507 kts | 174° |
| 2026-04-27 06:36 | 1.66436 | 45.31352 | 34927 ft | 506 kts | 174° |
| 2026-04-27 06:37 | 1.59413 | 45.31766 | 34929 ft | 507 kts | 174° |
| 2026-04-27 06:37 | 1.52316 | 45.32185 | 34930 ft | 506 kts | 174° |
| 2026-04-27 06:38 | 1.45296 | 45.32599 | 34929 ft | 505 kts | 174° |
| 2026-04-27 06:38 | 1.38199 | 45.33018 | 34929 ft | 506 kts | 174° |
| 2026-04-27 06:39 | 1.31167 | 45.33433 | 34929 ft | 506 kts | 174° |
| 2026-04-27 06:39 | 1.24133 | 45.33847 | 34930 ft | 505 kts | 174° |
| 2026-04-27 06:40 | 1.17073 | 45.34264 | 34931 ft | 506 kts | 174° |
| 2026-04-27 06:40 | 1.10022 | 45.34679 | 34932 ft | 506 kts | 174° |
| 2026-04-27 06:41 | 1.02955 | 45.35096 | 34932 ft | 506 kts | 175° |
| 2026-04-27 06:41 | 0.95930 | 45.35510 | 34931 ft | 505 kts | 175° |
| 2026-04-27 06:42 | 0.88877 | 45.35926 | 34930 ft | 506 kts | 175° |
| 2026-04-27 06:42 | 0.81871 | 45.36339 | 34927 ft | 504 kts | 175° |
| 2026-04-27 06:43 | 0.74845 | 45.36753 | 34927 ft | 505 kts | 175° |
| 2026-04-27 06:43 | 0.67808 | 45.37168 | 34928 ft | 505 kts | 175° |
| 2026-04-27 06:44 | 0.60779 | 45.37582 | 34929 ft | 504 kts | 175° |
| 2026-04-27 06:44 | 0.53747 | 45.37997 | 34929 ft | 504 kts | 175° |
| 2026-04-27 06:45 | 0.46722 | 45.38409 | 34930 ft | 504 kts | 175° |
| 2026-04-27 06:45 | 0.39693 | 45.38814 | 34929 ft | 504 kts | 175° |
| 2026-04-27 06:46 | 0.32690 | 45.39218 | 34930 ft | 504 kts | 175° |
| 2026-04-27 06:46 | 0.25677 | 45.39624 | 34928 ft | 503 kts | 175° |
| 2026-04-27 06:47 | 0.18659 | 45.40029 | 34927 ft | 502 kts | 175° |
| 2026-04-27 06:47 | 0.11667 | 45.40433 | 34920 ft | 502 kts | 175° |
| 2026-04-27 06:48 | 0.04675 | 45.40837 | 34913 ft | 503 kts | 175° |
| 2026-04-27 06:48 | -0.02314 | 45.41241 | 34911 ft | 503 kts | 176° |
| 2026-04-27 06:49 | -0.09361 | 45.41649 | 34910 ft | 502 kts | 176° |
| 2026-04-27 06:49 | -0.16339 | 45.42052 | 34908 ft | 501 kts | 176° |
| 2026-04-27 06:50 | -0.23300 | 45.42454 | 34907 ft | 502 kts | 176° |
| 2026-04-27 06:50 | -0.30302 | 45.42858 | 34907 ft | 502 kts | 176° |
| 2026-04-27 06:51 | -0.37319 | 45.43264 | 34907 ft | 502 kts | 176° |
| 2026-04-27 06:51 | -0.44289 | 45.43667 | 34907 ft | 502 kts | 175° |
| 2026-04-27 06:52 | -0.51279 | 45.44071 | 34908 ft | 501 kts | 175° |
| 2026-04-27 06:52 | -0.58292 | 45.44476 | 34909 ft | 502 kts | 176° |
| 2026-04-27 06:53 | -0.65275 | 45.44880 | 34909 ft | 501 kts | 176° |
| 2026-04-27 06:53 | -0.72250 | 45.45283 | 34911 ft | 501 kts | 176° |
| 2026-04-27 06:54 | -0.79184 | 45.45684 | 34914 ft | 501 kts | 176° |
| 2026-04-27 06:54 | -0.86202 | 45.46090 | 34916 ft | 501 kts | 176° |
| 2026-04-27 06:55 | -0.93193 | 45.46495 | 34919 ft | 501 kts | 176° |
| 2026-04-27 06:55 | -1.00199 | 45.46901 | 34923 ft | 500 kts | 176° |
| 2026-04-27 06:56 | -1.07177 | 45.47305 | 34929 ft | 500 kts | 176° |
| 2026-04-27 06:56 | -1.14137 | 45.47709 | 34928 ft | 500 kts | 176° |
| 2026-04-27 06:57 | -1.21100 | 45.48112 | 34928 ft | 500 kts | 176° |
| 2026-04-27 06:57 | -1.28060 | 45.48515 | 34929 ft | 500 kts | 176° |
| 2026-04-27 06:58 | -1.38497 | 45.49120 | 34930 ft | 500 kts | 176° |
| 2026-04-27 06:59 | -1.45475 | 45.49524 | 34929 ft | 500 kts | 176° |
| 2026-04-27 06:59 | -1.52457 | 45.49929 | 34930 ft | 500 kts | 176° |
| 2026-04-27 07:00 | -1.59423 | 45.50333 | 34930 ft | 499 kts | 176° |
| 2026-04-27 07:00 | -1.66366 | 45.50735 | 34930 ft | 500 kts | 176° |
| 2026-04-27 07:01 | -1.73331 | 45.51139 | 34931 ft | 499 kts | 176° |
| 2026-04-27 07:01 | -1.80288 | 45.51542 | 34930 ft | 498 kts | 176° |
| 2026-04-27 07:02 | -1.87186 | 45.51942 | 34931 ft | 498 kts | 176° |
| 2026-04-27 07:02 | -1.94171 | 45.52347 | 34933 ft | 501 kts | 176° |
| 2026-04-27 07:02 | -1.97677 | 45.52551 | 35167 ft | 508 kts | 176° |
| 2026-04-27 07:03 | -2.01202 | 45.52755 | 35937 ft | 504 kts | 176° |
| 2026-04-27 07:03 | -2.04699 | 45.52957 | 36766 ft | 500 kts | 176° |
| 2026-04-27 07:03 | -2.08186 | 45.53159 | 36925 ft | 503 kts | 176° |
| 2026-04-27 07:04 | -2.15125 | 45.53562 | 36923 ft | 498 kts | 176° |
| 2026-04-27 07:04 | -2.22091 | 45.53965 | 36920 ft | 499 kts | 176° |
| 2026-04-27 07:05 | -2.29048 | 45.54369 | 36914 ft | 498 kts | 176° |
| 2026-04-27 07:05 | -2.35989 | 45.54771 | 36913 ft | 498 kts | 176° |
| 2026-04-27 07:06 | -2.42917 | 45.55173 | 36911 ft | 497 kts | 176° |
| 2026-04-27 07:06 | -2.49851 | 45.55575 | 36909 ft | 498 kts | 176° |
| 2026-04-27 07:07 | -2.56789 | 45.55978 | 36910 ft | 498 kts | 176° |
| 2026-04-27 07:07 | -2.63745 | 45.56381 | 36909 ft | 498 kts | 176° |
| 2026-04-27 07:08 | -2.70655 | 45.56782 | 36909 ft | 497 kts | 176° |
| 2026-04-27 07:08 | -2.77597 | 45.57185 | 36910 ft | 497 kts | 176° |
| 2026-04-27 07:09 | -2.84498 | 45.57585 | 36910 ft | 497 kts | 176° |
| 2026-04-27 07:09 | -2.91426 | 45.57988 | 36910 ft | 497 kts | 176° |
| 2026-04-27 07:10 | -2.98379 | 45.58391 | 36910 ft | 498 kts | 176° |
| 2026-04-27 07:10 | -3.05282 | 45.58792 | 36911 ft | 497 kts | 176° |
| 2026-04-27 07:11 | -3.12211 | 45.59194 | 36908 ft | 496 kts | 176° |
| 2026-04-27 07:11 | -3.19094 | 45.59594 | 36909 ft | 496 kts | 176° |
| 2026-04-27 07:12 | -3.26030 | 45.59997 | 36908 ft | 495 kts | 176° |
| 2026-04-27 07:12 | -3.32932 | 45.60397 | 36909 ft | 495 kts | 176° |
| 2026-04-27 07:13 | -3.39857 | 45.60800 | 36909 ft | 495 kts | 176° |
| 2026-04-27 07:13 | -3.46746 | 45.61200 | 36909 ft | 497 kts | 176° |
| 2026-04-27 07:14 | -3.53657 | 45.61602 | 36912 ft | 495 kts | 176° |
| 2026-04-27 07:14 | -3.60598 | 45.62005 | 36914 ft | 496 kts | 176° |
| 2026-04-27 07:15 | -3.67506 | 45.62407 | 36913 ft | 495 kts | 176° |
| 2026-04-27 07:15 | -3.74351 | 45.62804 | 36915 ft | 494 kts | 176° |
| 2026-04-27 07:16 | -3.81270 | 45.63207 | 36918 ft | 494 kts | 176° |
| 2026-04-27 07:16 | -3.88145 | 45.63607 | 36918 ft | 495 kts | 176° |
| 2026-04-27 07:17 | -3.95048 | 45.64008 | 36918 ft | 495 kts | 176° |
| 2026-04-27 07:17 | -4.02010 | 45.64413 | 36918 ft | 495 kts | 176° |
| 2026-04-27 07:18 | -4.08890 | 45.64813 | 36919 ft | 494 kts | 176° |
| 2026-04-27 07:18 | -4.15780 | 45.65214 | 36917 ft | 493 kts | 176° |
| 2026-04-27 07:19 | -4.22655 | 45.65615 | 36925 ft | 494 kts | 176° |
| 2026-04-27 07:19 | -4.29565 | 45.66017 | 36931 ft | 495 kts | 176° |
| 2026-04-27 07:20 | -4.36449 | 45.66418 | 36930 ft | 494 kts | 176° |
| 2026-04-27 07:20 | -4.43347 | 45.66820 | 36929 ft | 495 kts | 176° |
| 2026-04-27 07:21 | -4.50262 | 45.67223 | 36924 ft | 495 kts | 176° |
| 2026-04-27 07:21 | -4.57123 | 45.67623 | 36916 ft | 495 kts | 176° |
| 2026-04-27 07:22 | -4.64031 | 45.68026 | 36917 ft | 495 kts | 176° |
| 2026-04-27 07:22 | -4.70932 | 45.68428 | 36918 ft | 494 kts | 176° |
| 2026-04-27 07:23 | -4.77803 | 45.68828 | 36918 ft | 495 kts | 176° |
| 2026-04-27 07:23 | -4.84708 | 45.69231 | 36918 ft | 495 kts | 176° |
| 2026-04-27 07:24 | -4.91591 | 45.69633 | 36915 ft | 495 kts | 176° |
| 2026-04-27 07:24 | -4.98508 | 45.70036 | 36916 ft | 494 kts | 176° |
| 2026-04-27 07:25 | -5.05451 | 45.70441 | 36915 ft | 495 kts | 176° |
| 2026-04-27 07:25 | -5.12323 | 45.70843 | 36908 ft | 496 kts | 176° |
| 2026-04-27 07:26 | -5.19212 | 45.71245 | 36911 ft | 494 kts | 176° |
| 2026-04-27 07:26 | -5.26130 | 45.71649 | 36911 ft | 496 kts | 176° |
| 2026-04-27 07:27 | -5.33021 | 45.72052 | 36908 ft | 495 kts | 176° |
| 2026-04-27 07:27 | -5.39947 | 45.72456 | 36911 ft | 495 kts | 176° |
| 2026-04-27 07:28 | -5.46835 | 45.72859 | 36909 ft | 495 kts | 176° |
| 2026-04-27 07:28 | -5.53760 | 45.73264 | 36908 ft | 495 kts | 176° |
| 2026-04-27 07:29 | -5.60672 | 45.73667 | 36910 ft | 495 kts | 176° |
| 2026-04-27 07:29 | -5.67605 | 45.74073 | 36909 ft | 496 kts | 176° |
| 2026-04-27 07:30 | -5.74468 | 45.74474 | 36910 ft | 494 kts | 176° |
| 2026-04-27 07:30 | -5.81370 | 45.74878 | 36910 ft | 495 kts | 176° |
| 2026-04-27 07:31 | -5.88284 | 45.75283 | 36910 ft | 496 kts | 176° |
| 2026-04-27 07:31 | -5.95163 | 45.75686 | 36910 ft | 496 kts | 176° |
| 2026-04-27 07:32 | -6.02088 | 45.76091 | 36910 ft | 495 kts | 176° |
| 2026-04-27 07:32 | -6.08988 | 45.76495 | 36910 ft | 494 kts | 176° |
| 2026-04-27 07:33 | -6.15868 | 45.76898 | 36909 ft | 495 kts | 176° |
| 2026-04-27 07:33 | -6.22747 | 45.77301 | 36908 ft | 493 kts | 176° |
| 2026-04-27 07:34 | -6.29636 | 45.77705 | 36908 ft | 495 kts | 176° |
| 2026-04-27 07:34 | -6.36491 | 45.78106 | 36909 ft | 495 kts | 176° |
| 2026-04-27 07:35 | -6.43400 | 45.78511 | 36909 ft | 496 kts | 177° |
| 2026-04-27 07:35 | -6.50316 | 45.78917 | 36910 ft | 495 kts | 176° |
| 2026-04-27 07:36 | -6.57181 | 45.79320 | 36909 ft | 495 kts | 176° |
| 2026-04-27 07:36 | -6.64075 | 45.79724 | 36909 ft | 494 kts | 177° |
| 2026-04-27 07:37 | -6.70962 | 45.80129 | 36914 ft | 494 kts | 177° |
| 2026-04-27 07:37 | -6.77851 | 45.80533 | 36925 ft | 493 kts | 177° |
| 2026-04-27 07:38 | -6.84726 | 45.80936 | 36926 ft | 493 kts | 177° |
| 2026-04-27 07:38 | -6.91608 | 45.81341 | 36924 ft | 494 kts | 177° |
| 2026-04-27 07:39 | -6.98458 | 45.81743 | 36929 ft | 494 kts | 177° |
| 2026-04-27 07:39 | -7.05366 | 45.82149 | 36932 ft | 494 kts | 177° |
| 2026-04-27 07:40 | -7.12203 | 45.82551 | 36929 ft | 494 kts | 177° |
| 2026-04-27 07:40 | -7.19106 | 45.82957 | 36929 ft | 492 kts | 177° |
| 2026-04-27 07:41 | -7.25973 | 45.83361 | 36923 ft | 494 kts | 177° |
| 2026-04-27 07:41 | -7.32822 | 45.83764 | 36916 ft | 495 kts | 177° |
| 2026-04-27 07:42 | -7.39721 | 45.84170 | 36918 ft | 494 kts | 177° |
| 2026-04-27 07:42 | -7.46601 | 45.84575 | 36920 ft | 494 kts | 177° |
| 2026-04-27 07:43 | -7.53506 | 45.84982 | 36921 ft | 494 kts | 177° |
| 2026-04-27 07:43 | -7.60390 | 45.85388 | 36921 ft | 494 kts | 177° |
| 2026-04-27 07:44 | -7.67263 | 45.85793 | 36918 ft | 496 kts | 177° |
| 2026-04-27 07:44 | -7.74178 | 45.86200 | 36912 ft | 495 kts | 177° |
| 2026-04-27 07:45 | -7.81049 | 45.86606 | 36910 ft | 494 kts | 177° |
| 2026-04-27 07:45 | -7.87956 | 45.87013 | 36910 ft | 495 kts | 177° |
| 2026-04-27 07:46 | -7.94862 | 45.87421 | 36910 ft | 494 kts | 177° |
| 2026-04-27 07:46 | -8.01750 | 45.87827 | 36908 ft | 495 kts | 177° |
| 2026-04-27 07:47 | -8.08607 | 45.88232 | 36910 ft | 496 kts | 177° |
| 2026-04-27 07:47 | -8.15515 | 45.88640 | 36908 ft | 497 kts | 177° |
| 2026-04-27 07:48 | -8.22422 | 45.89049 | 36908 ft | 495 kts | 178° |
| 2026-04-27 07:48 | -8.29313 | 45.89456 | 36908 ft | 494 kts | 177° |
| 2026-04-27 07:49 | -8.36262 | 45.89867 | 36909 ft | 496 kts | 177° |
| 2026-04-27 07:49 | -8.43135 | 45.90273 | 36909 ft | 495 kts | 177° |
| 2026-04-27 07:50 | -8.50033 | 45.90682 | 36908 ft | 496 kts | 177° |
| 2026-04-27 07:50 | -8.56923 | 45.91090 | 36910 ft | 496 kts | 177° |
| 2026-04-27 07:51 | -8.63821 | 45.91498 | 36909 ft | 496 kts | 178° |
| 2026-04-27 07:51 | -8.70719 | 45.91907 | 36909 ft | 494 kts | 178° |
| 2026-04-27 07:52 | -8.77639 | 45.92317 | 36910 ft | 496 kts | 178° |
| 2026-04-27 07:52 | -8.84535 | 45.92726 | 36909 ft | 497 kts | 177° |
| 2026-04-27 07:53 | -8.91459 | 45.93136 | 36910 ft | 497 kts | 177° |
| 2026-04-27 07:53 | -8.98367 | 45.93546 | 36909 ft | 496 kts | 177° |
| 2026-04-27 07:54 | -9.05308 | 45.93958 | 36909 ft | 497 kts | 177° |
| 2026-04-27 07:54 | -9.12202 | 45.94368 | 36906 ft | 497 kts | 178° |
| 2026-04-27 07:55 | -9.19130 | 45.94779 | 36906 ft | 496 kts | 178° |
| 2026-04-27 07:55 | -9.26028 | 45.95189 | 36908 ft | 496 kts | 178° |
| 2026-04-27 07:56 | -9.32953 | 45.95601 | 36906 ft | 496 kts | 178° |
| 2026-04-27 07:56 | -9.39879 | 45.96013 | 36907 ft | 496 kts | 178° |
| 2026-04-27 07:57 | -9.46814 | 45.96425 | 36908 ft | 496 kts | 178° |
| 2026-04-27 07:57 | -9.53707 | 45.96836 | 36911 ft | 496 kts | 178° |
| 2026-04-27 07:58 | -9.60613 | 45.97247 | 36906 ft | 496 kts | 178° |
| 2026-04-27 07:58 | -9.67497 | 45.97657 | 36906 ft | 496 kts | 178° |
| 2026-04-27 07:59 | -9.74398 | 45.98068 | 36909 ft | 496 kts | 178° |
| 2026-04-27 07:59 | -9.84763 | 45.98686 | 36909 ft | 495 kts | 178° |
| 2026-04-27 08:00 | -9.91687 | 45.99099 | 36909 ft | 495 kts | 178° |
| 2026-04-27 08:00 | -9.98541 | 45.99508 | 36915 ft | 494 kts | 178° |
| 2026-04-27 08:01 | -10.05437 | 45.99917 | 36924 ft | 494 kts | 178° |
| 2026-04-27 08:01 | -10.12313 | 46.00323 | 36922 ft | 495 kts | 178° |
| 2026-04-27 08:02 | -10.19228 | 46.00731 | 36912 ft | 495 kts | 178° |
| 2026-04-27 08:02 | -10.26129 | 46.01139 | 36910 ft | 495 kts | 178° |
| 2026-04-27 08:03 | -10.33062 | 46.01549 | 36909 ft | 494 kts | 178° |
| 2026-04-27 08:03 | -10.39924 | 46.01955 | 36909 ft | 494 kts | 178° |
| 2026-04-27 08:04 | -10.46817 | 46.02363 | 36911 ft | 494 kts | 178° |
| 2026-04-27 08:04 | -10.53697 | 46.02771 | 36909 ft | 494 kts | 179° |
| 2026-04-27 08:05 | -10.60577 | 46.03178 | 36908 ft | 494 kts | 179° |
| 2026-04-27 08:05 | -10.67486 | 46.03588 | 36910 ft | 494 kts | 179° |
| 2026-04-27 08:06 | -10.74328 | 46.03994 | 36910 ft | 493 kts | 179° |
| 2026-04-27 08:06 | -10.81190 | 46.04400 | 36910 ft | 493 kts | 179° |
| 2026-04-27 08:07 | -10.88071 | 46.04809 | 36910 ft | 492 kts | 179° |
| 2026-04-27 08:07 | -10.94914 | 46.05215 | 36910 ft | 492 kts | 179° |
| 2026-04-27 08:08 | -11.01750 | 46.05621 | 36910 ft | 493 kts | 179° |
| 2026-04-27 08:08 | -11.08610 | 46.06029 | 36911 ft | 492 kts | 179° |
| 2026-04-27 08:09 | -11.15459 | 46.06436 | 36910 ft | 491 kts | 179° |
| 2026-04-27 08:09 | -11.22298 | 46.06843 | 36910 ft | 492 kts | 179° |
| 2026-04-27 08:10 | -11.29143 | 46.07251 | 36910 ft | 491 kts | 179° |
| 2026-04-27 08:10 | -11.35998 | 46.07659 | 36910 ft | 490 kts | 179° |
| 2026-04-27 08:11 | -11.42832 | 46.08066 | 36909 ft | 490 kts | 179° |
| 2026-04-27 08:11 | -11.49656 | 46.08472 | 36909 ft | 490 kts | 179° |
| 2026-04-27 08:12 | -11.56524 | 46.08882 | 36910 ft | 491 kts | 179° |
| 2026-04-27 08:12 | -11.63398 | 46.09292 | 36910 ft | 491 kts | 179° |
| 2026-04-27 08:13 | -11.70232 | 46.09700 | 36910 ft | 490 kts | 179° |
| 2026-04-27 08:13 | -11.77057 | 46.10108 | 36910 ft | 489 kts | 179° |
| 2026-04-27 08:14 | -11.83860 | 46.10515 | 36910 ft | 489 kts | 179° |
| 2026-04-27 08:14 | -11.90671 | 46.10921 | 36906 ft | 489 kts | 179° |
| 2026-04-27 08:15 | -11.97512 | 46.11331 | 36894 ft | 488 kts | 179° |
| 2026-04-27 08:15 | -12.04304 | 46.11737 | 36890 ft | 488 kts | 179° |
| 2026-04-27 08:16 | -12.11145 | 46.12147 | 36889 ft | 489 kts | 180° |
| 2026-04-27 08:16 | -12.17961 | 46.12555 | 36891 ft | 489 kts | 180° |
| 2026-04-27 08:17 | -12.24828 | 46.12967 | 36892 ft | 489 kts | 180° |
| 2026-04-27 08:17 | -12.31611 | 46.13374 | 36891 ft | 488 kts | 180° |
| 2026-04-27 08:18 | -12.38436 | 46.13789 | 36890 ft | 487 kts | 180° |
| 2026-04-27 08:18 | -12.45247 | 46.14205 | 36892 ft | 488 kts | 180° |
| 2026-04-27 08:19 | -12.52015 | 46.14618 | 36893 ft | 488 kts | 180° |
| 2026-04-27 08:19 | -12.58850 | 46.15035 | 36892 ft | 487 kts | 180° |
| 2026-04-27 08:20 | -12.65642 | 46.15450 | 36892 ft | 488 kts | 180° |
| 2026-04-27 08:20 | -12.72442 | 46.15865 | 36890 ft | 487 kts | 180° |
| 2026-04-27 08:21 | -12.79253 | 46.16282 | 36890 ft | 487 kts | 180° |
| 2026-04-27 08:21 | -12.86005 | 46.16695 | 36894 ft | 487 kts | 180° |
| 2026-04-27 08:22 | -12.92789 | 46.17110 | 36892 ft | 485 kts | 180° |
| 2026-04-27 08:22 | -12.99565 | 46.17525 | 36894 ft | 487 kts | 180° |
| 2026-04-27 08:23 | -13.06386 | 46.17943 | 36887 ft | 487 kts | 180° |
| 2026-04-27 08:23 | -13.13149 | 46.18357 | 36896 ft | 486 kts | 180° |
| 2026-04-27 08:24 | -13.19915 | 46.18772 | 36906 ft | 487 kts | 180° |
| 2026-04-27 08:24 | -13.26693 | 46.19188 | 36913 ft | 486 kts | 180° |
| 2026-04-27 08:25 | -13.33435 | 46.19602 | 36912 ft | 484 kts | 180° |
| 2026-04-27 08:25 | -13.40222 | 46.20019 | 36911 ft | 484 kts | 180° |
| 2026-04-27 08:26 | -13.46967 | 46.20434 | 36910 ft | 483 kts | 180° |
| 2026-04-27 08:26 | -13.53713 | 46.20849 | 36908 ft | 485 kts | 180° |
| 2026-04-27 08:27 | -13.60423 | 46.21262 | 36908 ft | 484 kts | 180° |
| 2026-04-27 08:27 | -13.67164 | 46.21678 | 36908 ft | 484 kts | 180° |
| 2026-04-27 08:28 | -13.73915 | 46.22096 | 36905 ft | 483 kts | 180° |
| 2026-04-27 08:28 | -13.80654 | 46.22513 | 36906 ft | 483 kts | 180° |
| 2026-04-27 08:29 | -13.87340 | 46.22928 | 36909 ft | 481 kts | 180° |
| 2026-04-27 08:29 | -13.94065 | 46.23344 | 36898 ft | 483 kts | 180° |
| 2026-04-27 08:30 | -14.00784 | 46.23760 | 36891 ft | 481 kts | 180° |
| 2026-04-27 08:30 | -14.07475 | 46.24175 | 36890 ft | 482 kts | 180° |
| 2026-04-27 08:31 | -14.14223 | 46.24594 | 36889 ft | 482 kts | 180° |
| 2026-04-27 08:31 | -14.20882 | 46.25008 | 36890 ft | 482 kts | 180° |
| 2026-04-27 08:32 | -14.27591 | 46.25425 | 36890 ft | 480 kts | 180° |
| 2026-04-27 08:32 | -14.34279 | 46.25840 | 36891 ft | 480 kts | 180° |
| 2026-04-27 08:33 | -14.40992 | 46.26258 | 36887 ft | 480 kts | 180° |
| 2026-04-27 08:33 | -14.47660 | 46.26673 | 36888 ft | 478 kts | 180° |
| 2026-04-27 08:34 | -14.54326 | 46.27088 | 36887 ft | 478 kts | 180° |
| 2026-04-27 08:34 | -14.60965 | 46.27502 | 36891 ft | 478 kts | 180° |
| 2026-04-27 08:35 | -14.67648 | 46.27919 | 36887 ft | 479 kts | 180° |
| 2026-04-27 08:35 | -14.74315 | 46.28335 | 36888 ft | 477 kts | 180° |
| 2026-04-27 08:36 | -14.80927 | 46.28748 | 36888 ft | 478 kts | 180° |
| 2026-04-27 08:36 | -14.87620 | 46.29166 | 36885 ft | 478 kts | 180° |
| 2026-04-27 08:37 | -14.94258 | 46.29581 | 36889 ft | 477 kts | 180° |
| 2026-04-27 08:37 | -15.00872 | 46.29995 | 36885 ft | 477 kts | 180° |
| 2026-04-27 08:38 | -15.07528 | 46.30411 | 36882 ft | 476 kts | 180° |
| 2026-04-27 08:38 | -15.14171 | 46.30827 | 36885 ft | 476 kts | 180° |
| 2026-04-27 08:39 | -15.20779 | 46.31241 | 36881 ft | 475 kts | 180° |
| 2026-04-27 08:39 | -15.27411 | 46.31657 | 36882 ft | 475 kts | 179° |
| 2026-04-27 08:40 | -15.34016 | 46.32072 | 36881 ft | 474 kts | 180° |
| 2026-04-27 08:40 | -15.40624 | 46.32487 | 36882 ft | 473 kts | 179° |
| 2026-04-27 08:41 | -15.47230 | 46.32902 | 36888 ft | 474 kts | 179° |
| 2026-04-27 08:41 | -15.53783 | 46.33314 | 36892 ft | 472 kts | 179° |
| 2026-04-27 08:42 | -15.60391 | 46.33730 | 36892 ft | 471 kts | 179° |
| 2026-04-27 08:42 | -15.66913 | 46.34447 | 36895 ft | 475 kts | 169° |
| 2026-04-27 08:43 | -15.73363 | 46.36241 | 36898 ft | 477 kts | 167° |
| 2026-04-27 08:43 | -15.79773 | 46.38084 | 36894 ft | 476 kts | 167° |
| 2026-04-27 08:44 | -15.86174 | 46.39924 | 36883 ft | 476 kts | 168° |
| 2026-04-27 08:44 | -15.92565 | 46.41761 | 36888 ft | 476 kts | 167° |
| 2026-04-27 08:45 | -15.98957 | 46.43599 | 36886 ft | 475 kts | 168° |
| 2026-04-27 08:45 | -16.05350 | 46.45439 | 36880 ft | 475 kts | 168° |
| 2026-04-27 08:46 | -16.11716 | 46.47272 | 36881 ft | 473 kts | 168° |
| 2026-04-27 08:46 | -16.18073 | 46.49103 | 36886 ft | 474 kts | 167° |
| 2026-04-27 08:47 | -16.24437 | 46.50937 | 36886 ft | 473 kts | 167° |
| 2026-04-27 08:47 | -16.30812 | 46.52776 | 36887 ft | 474 kts | 168° |
| 2026-04-27 08:48 | -16.37149 | 46.54605 | 36892 ft | 473 kts | 168° |
| 2026-04-27 08:48 | -16.43547 | 46.56453 | 36891 ft | 472 kts | 168° |
| 2026-04-27 08:49 | -16.49922 | 46.58295 | 36892 ft | 472 kts | 167° |
| 2026-04-27 08:49 | -16.56274 | 46.60133 | 36892 ft | 471 kts | 167° |
| 2026-04-27 08:50 | -16.62597 | 46.61964 | 36891 ft | 470 kts | 168° |
| 2026-04-27 08:50 | -16.68929 | 46.63798 | 36892 ft | 470 kts | 168° |
| 2026-04-27 08:51 | -16.75281 | 46.65639 | 36887 ft | 470 kts | 167° |
| 2026-04-27 08:51 | -16.81598 | 46.67471 | 36890 ft | 471 kts | 167° |
| 2026-04-27 08:52 | -16.87935 | 46.69311 | 36892 ft | 469 kts | 167° |
| 2026-04-27 08:52 | -16.94243 | 46.71143 | 36894 ft | 468 kts | 167° |
| 2026-04-27 08:53 | -17.00549 | 46.72976 | 36891 ft | 469 kts | 167° |
| 2026-04-27 08:53 | -17.06845 | 46.74808 | 36903 ft | 469 kts | 167° |
| 2026-04-27 08:54 | -17.13142 | 46.76640 | 36928 ft | 469 kts | 167° |
| 2026-04-27 08:54 | -17.19445 | 46.78477 | 36940 ft | 468 kts | 167° |
| 2026-04-27 08:55 | -17.25728 | 46.80308 | 36959 ft | 468 kts | 168° |
| 2026-04-27 08:55 | -17.32034 | 46.82148 | 36967 ft | 468 kts | 167° |
| 2026-04-27 08:56 | -17.38298 | 46.83976 | 36979 ft | 467 kts | 167° |
| 2026-04-27 08:56 | -17.44559 | 46.85805 | 36987 ft | 466 kts | 168° |
| 2026-04-27 08:57 | -17.53970 | 46.88557 | 37009 ft | 466 kts | 168° |
| 2026-04-27 08:58 | -17.60192 | 46.90377 | 37032 ft | 465 kts | 167° |
| 2026-04-27 08:58 | -17.66432 | 46.92205 | 37043 ft | 467 kts | 167° |
| 2026-04-27 08:59 | -17.72705 | 46.94043 | 37067 ft | 466 kts | 167° |
| 2026-04-27 08:59 | -17.78953 | 46.95875 | 37090 ft | 465 kts | 168° |
| 2026-04-27 08:59 | -17.82077 | 46.96793 | 36933 ft | 459 kts | 168° |
| 2026-04-27 09:00 | -17.85162 | 46.97699 | 36094 ft | 461 kts | 168° |
| 2026-04-27 09:00 | -17.88228 | 46.98598 | 35181 ft | 462 kts | 167° |
| 2026-04-27 09:00 | -17.91352 | 46.99516 | 34337 ft | 462 kts | 167° |
| 2026-04-27 09:00 | -17.94431 | 47.00421 | 33528 ft | 461 kts | 167° |
| 2026-04-27 09:01 | -17.97530 | 47.01332 | 32662 ft | 460 kts | 167° |
| 2026-04-27 09:01 | -18.00613 | 47.02240 | 31852 ft | 461 kts | 167° |
| 2026-04-27 09:01 | -18.03701 | 47.03148 | 31013 ft | 463 kts | 167° |
| 2026-04-27 09:01 | -18.06820 | 47.04067 | 30405 ft | 460 kts | 168° |
| 2026-04-27 09:02 | -18.09923 | 47.04981 | 29930 ft | 471 kts | 168° |
| 2026-04-27 09:02 | -18.13131 | 47.05923 | 29388 ft | 483 kts | 168° |
| 2026-04-27 09:02 | -18.16377 | 47.06880 | 28816 ft | 484 kts | 168° |
| 2026-04-27 09:02 | -18.19587 | 47.07828 | 28237 ft | 480 kts | 168° |
| 2026-04-27 09:03 | -18.22793 | 47.08775 | 27675 ft | 476 kts | 168° |
| 2026-04-27 09:03 | -18.25983 | 47.09718 | 27091 ft | 472 kts | 168° |
| 2026-04-27 09:03 | -18.29131 | 47.10731 | 26503 ft | 471 kts | 162° |
| 2026-04-27 09:03 | -18.32085 | 47.12178 | 25936 ft | 473 kts | 153° |
| 2026-04-27 09:04 | -18.34846 | 47.14133 | 25515 ft | 475 kts | 146° |
| 2026-04-27 09:04 | -18.37469 | 47.16268 | 25126 ft | 475 kts | 144° |
| 2026-04-27 09:04 | -18.40038 | 47.18387 | 24737 ft | 474 kts | 144° |
| 2026-04-27 09:04 | -18.42638 | 47.20536 | 24335 ft | 472 kts | 144° |
| 2026-04-27 09:05 | -18.45227 | 47.22679 | 23919 ft | 470 kts | 144° |
| 2026-04-27 09:05 | -18.47805 | 47.24814 | 23507 ft | 469 kts | 144° |
| 2026-04-27 09:05 | -18.50339 | 47.26915 | 23105 ft | 468 kts | 144° |
| 2026-04-27 09:05 | -18.52894 | 47.29035 | 22700 ft | 466 kts | 143° |
| 2026-04-27 09:06 | -18.55443 | 47.31151 | 22294 ft | 463 kts | 143° |
| 2026-04-27 09:06 | -18.57953 | 47.33236 | 21890 ft | 459 kts | 143° |
| 2026-04-27 09:06 | -18.60467 | 47.35325 | 21500 ft | 455 kts | 143° |
| 2026-04-27 09:06 | -18.62925 | 47.37369 | 21114 ft | 452 kts | 143° |
| 2026-04-27 09:07 | -18.65410 | 47.39436 | 20725 ft | 449 kts | 143° |
| 2026-04-27 09:07 | -18.67840 | 47.41458 | 20336 ft | 447 kts | 143° |
| 2026-04-27 09:07 | -18.70281 | 47.43491 | 19944 ft | 443 kts | 143° |
| 2026-04-27 09:07 | -18.72668 | 47.45478 | 19567 ft | 440 kts | 143° |
| 2026-04-27 09:08 | -18.75074 | 47.47483 | 19185 ft | 435 kts | 142° |
| 2026-04-27 09:08 | -18.77434 | 47.49502 | 18811 ft | 434 kts | 138° |
| 2026-04-27 09:08 | -18.79473 | 47.51804 | 18439 ft | 431 kts | 128° |
| 2026-04-27 09:08 | -18.81088 | 47.54420 | 18174 ft | 422 kts | 117° |
| 2026-04-27 09:09 | -18.82282 | 47.57191 | 18134 ft | 402 kts | 112° |
| 2026-04-27 09:09 | -18.83325 | 47.59826 | 18117 ft | 382 kts | 112° |
| 2026-04-27 09:09 | -18.84316 | 47.62352 | 17970 ft | 369 kts | 112° |
| 2026-04-27 09:09 | -18.85285 | 47.64833 | 17636 ft | 361 kts | 112° |
| 2026-04-27 09:10 | -18.86232 | 47.67269 | 17289 ft | 354 kts | 112° |
| 2026-04-27 09:10 | -18.87148 | 47.69637 | 16944 ft | 348 kts | 112° |
| 2026-04-27 09:10 | -18.88063 | 47.72008 | 16601 ft | 342 kts | 112° |
| 2026-04-27 09:10 | -18.88945 | 47.74302 | 16257 ft | 337 kts | 112° |
| 2026-04-27 09:11 | -18.89821 | 47.76584 | 15904 ft | 332 kts | 112° |
| 2026-04-27 09:11 | -18.90673 | 47.78808 | 15554 ft | 327 kts | 112° |
| 2026-04-27 09:11 | -18.91523 | 47.81028 | 15194 ft | 323 kts | 112° |
| 2026-04-27 09:11 | -18.92349 | 47.83187 | 14844 ft | 318 kts | 111° |
| 2026-04-27 09:12 | -18.92993 | 47.85420 | 14482 ft | 314 kts | 102° |
| 2026-04-27 09:12 | -18.93220 | 47.87661 | 14116 ft | 307 kts | 84° |
| 2026-04-27 09:12 | -18.92644 | 47.89800 | 13741 ft | 301 kts | 61° |
| 2026-04-27 09:12 | -18.91360 | 47.91487 | 13373 ft | 295 kts | 39° |
| 2026-04-27 09:13 | -18.89589 | 47.92521 | 13010 ft | 290 kts | 17° |
| 2026-04-27 09:13 | -18.87602 | 47.92782 | 12621 ft | 286 kts | 355° |
| 2026-04-27 09:13 | -18.85690 | 47.92263 | 12192 ft | 284 kts | 333° |
| 2026-04-27 09:13 | -18.84108 | 47.91059 | 11771 ft | 282 kts | 312° |
| 2026-04-27 09:14 | -18.83048 | 47.89336 | 11350 ft | 280 kts | 290° |
| 2026-04-27 09:14 | -18.82650 | 47.87361 | 10911 ft | 275 kts | 269° |
| 2026-04-27 09:14 | -18.82749 | 47.85383 | 10507 ft | 269 kts | 264° |
| 2026-04-27 09:14 | -18.82904 | 47.83440 | 10045 ft | 268 kts | 264° |
| 2026-04-27 09:15 | -18.83064 | 47.81471 | 9564 ft | 267 kts | 264° |
| 2026-04-27 09:15 | -18.83220 | 47.79536 | 9087 ft | 266 kts | 264° |
| 2026-04-27 09:15 | -18.83376 | 47.77616 | 8607 ft | 265 kts | 264° |
| 2026-04-27 09:15 | -18.83532 | 47.75688 | 8115 ft | 264 kts | 264° |
| 2026-04-27 09:16 | -18.83525 | 47.73760 | 7609 ft | 264 kts | 276° |
| 2026-04-27 09:16 | -18.83262 | 47.71835 | 7102 ft | 264 kts | 278° |
| 2026-04-27 09:16 | -18.82975 | 47.69943 | 6665 ft | 260 kts | 278° |
| 2026-04-27 09:16 | -18.82702 | 47.68130 | 6602 ft | 239 kts | 278° |
| 2026-04-27 09:17 | -18.82454 | 47.66466 | 6587 ft | 219 kts | 277° |
| 2026-04-27 09:17 | -18.82227 | 47.64936 | 6579 ft | 202 kts | 277° |
| 2026-04-27 09:17 | -18.82024 | 47.63564 | 6544 ft | 181 kts | 277° |
| 2026-04-27 09:17 | -18.81840 | 47.62327 | 6517 ft | 161 kts | 277° |
| 2026-04-27 09:18 | -18.81669 | 47.61167 | 6528 ft | 160 kts | 277° |
| 2026-04-27 09:18 | -18.81499 | 47.60014 | 6508 ft | 161 kts | 277° |
| 2026-04-27 09:18 | -18.81326 | 47.58854 | 6502 ft | 158 kts | 277° |
| 2026-04-27 09:18 | -18.81155 | 47.57700 | 6503 ft | 160 kts | 277° |
| 2026-04-27 09:19 | -18.80985 | 47.56558 | 6569 ft | 161 kts | 277° |
| 2026-04-27 09:19 | -18.80832 | 47.55282 | 6874 ft | 187 kts | 265° |
| 2026-04-27 09:19 | -18.81283 | 47.53996 | 7025 ft | 194 kts | 230° |
| 2026-04-27 09:19 | -18.82390 | 47.53265 | 7011 ft | 191 kts | 191° |
| 2026-04-27 09:20 | -18.83698 | 47.53369 | 7039 ft | 188 kts | 167° |
| 2026-04-27 09:20 | -18.84977 | 47.53702 | 7045 ft | 190 kts | 165° |
| 2026-04-27 09:20 | -18.86277 | 47.54037 | 7026 ft | 189 kts | 166° |
| 2026-04-27 09:20 | -18.87587 | 47.54416 | 7045 ft | 206 kts | 157° |
| 2026-04-27 09:21 | -18.88708 | 47.55361 | 7024 ft | 211 kts | 121° |
| 2026-04-27 09:21 | -18.89162 | 47.56909 | 7046 ft | 238 kts | 97° |
| 2026-04-27 09:21 | -18.89277 | 47.58719 | 7046 ft | 248 kts | 94° |
| 2026-04-27 09:21 | -18.89364 | 47.60522 | 7042 ft | 246 kts | 94° |
| 2026-04-27 09:22 | -18.89456 | 47.62344 | 7037 ft | 247 kts | 94° |
| 2026-04-27 09:22 | -18.89639 | 47.64140 | 7038 ft | 245 kts | 102° |
| 2026-04-27 09:22 | -18.90015 | 47.65879 | 7036 ft | 245 kts | 103° |
| 2026-04-27 09:22 | -18.90416 | 47.67633 | 7036 ft | 244 kts | 103° |
| 2026-04-27 09:23 | -18.90808 | 47.69347 | 7028 ft | 233 kts | 104° |
| 2026-04-27 09:23 | -18.91172 | 47.70947 | 7020 ft | 220 kts | 103° |
| 2026-04-27 09:23 | -18.91533 | 47.72535 | 7032 ft | 222 kts | 104° |
| 2026-04-27 09:23 | -18.91768 | 47.74131 | 7024 ft | 223 kts | 85° |
| 2026-04-27 09:24 | -18.91269 | 47.75661 | 7012 ft | 226 kts | 54° |
| 2026-04-27 09:24 | -18.89978 | 47.76758 | 6985 ft | 242 kts | 20° |
| 2026-04-27 09:24 | -18.88371 | 47.76907 | 6951 ft | 230 kts | 346° |
| 2026-04-27 09:24 | -18.86840 | 47.76234 | 6995 ft | 245 kts | 333° |
| 2026-04-27 09:25 | -18.85366 | 47.75416 | 7022 ft | 229 kts | 330° |
| 2026-04-27 09:25 | -18.84194 | 47.74386 | 7015 ft | 213 kts | 305° |
| 2026-04-27 09:25 | -18.83592 | 47.73018 | 7035 ft | 202 kts | 284° |
| 2026-04-27 09:25 | -18.83284 | 47.71663 | 7003 ft | 177 kts | 282° |
| 2026-04-27 09:26 | -18.83055 | 47.70454 | 7020 ft | 165 kts | 279° |
| 2026-04-27 09:26 | -18.82869 | 47.69266 | 7009 ft | 164 kts | 278° |
| 2026-04-27 09:26 | -18.82692 | 47.68073 | 7033 ft | 164 kts | 278° |
| 2026-04-27 09:26 | -18.82517 | 47.66887 | 7022 ft | 163 kts | 278° |
| 2026-04-27 09:27 | -18.82343 | 47.65707 | 7028 ft | 163 kts | 278° |
| 2026-04-27 09:27 | -18.82165 | 47.64511 | 7034 ft | 164 kts | 278° |
| 2026-04-27 09:27 | -18.81987 | 47.63309 | 6833 ft | 169 kts | 277° |
| 2026-04-27 09:27 | -18.81808 | 47.62106 | 6555 ft | 163 kts | 277° |
| 2026-04-27 09:28 | -18.81636 | 47.60946 | 6333 ft | 161 kts | 277° |
| 2026-04-27 09:28 | -18.81463 | 47.59776 | 6114 ft | 159 kts | 277° |
| 2026-04-27 09:28 | -18.81291 | 47.58614 | 5905 ft | 160 kts | 277° |
| 2026-04-27 09:28 | -18.81122 | 47.57477 | 5696 ft | 158 kts | 278° |
| 2026-04-27 09:29 | -18.80951 | 47.56325 | 5489 ft | 159 kts | 278° |
| 2026-04-27 09:29 | -18.80780 | 47.55181 | 5259 ft | 157 kts | 278° |
| 2026-04-27 09:29 | -18.80609 | 47.54030 | 5060 ft | 158 kts | 278° |
| 2026-04-27 09:29 | -18.80441 | 47.52902 | 4845 ft | 156 kts | 278° |
| 2026-04-27 09:30 | -18.80274 | 47.51770 | 4621 ft | 157 kts | 278° |
| 2026-04-27 09:30 | -18.80098 | 47.50645 | 4390 ft | 154 kts | 278° |
| 2026-04-27 09:30 | -18.79938 | 47.49525 | 4223 ft | 154 kts | 278° |
| 2026-04-27 09:30 | -18.79781 | 47.48455 | 4166 ft | 135 kts | 279° |
| 2026-04-27 09:31 | -18.79648 | 47.47566 | 4181 ft | 107 kts | 279° |
| 2026-04-27 09:31 | -18.79556 | 47.46950 | 4207 ft | 63 kts | 279° |
| 2026-04-27 09:31 | -18.79510 | 47.46645 | 4219 ft | 19 kts | 278° |
| 2026-04-27 09:31 | -18.79501 | 47.46578 | 4221 ft | 6 kts | 278° |
| 2026-04-27 09:32 | -18.79478 | 47.46521 | 4222 ft | 9 kts | 301° |
| 2026-04-27 09:32 | -18.79459 | 47.46477 | 4224 ft | 4 kts | 251° |
| 2026-04-27 09:32 | -18.79482 | 47.46472 | 4224 ft | 3 kts | 126° |
| 2026-04-27 09:32 | -18.79492 | 47.46522 | 4222 ft | 11 kts | 99° |
| 2026-04-27 09:33 | -18.79504 | 47.46606 | 4220 ft | 13 kts | 98° |
| 2026-04-27 09:33 | -18.79521 | 47.46711 | 4216 ft | 15 kts | 100° |
| 2026-04-27 09:33 | -18.79539 | 47.46824 | 4213 ft | 16 kts | 99° |
| 2026-04-27 09:33 | -18.79558 | 47.46951 | 4207 ft | 18 kts | 98° |
| 2026-04-27 09:34 | -18.79577 | 47.47094 | 4200 ft | 20 kts | 98° |
| 2026-04-27 09:34 | -18.79603 | 47.47250 | 4193 ft | 21 kts | 100° |
| 2026-04-27 09:34 | -18.79625 | 47.47415 | 4186 ft | 23 kts | 97° |
| 2026-04-27 09:34 | -18.79645 | 47.47562 | 4181 ft | 16 kts | 101° |
| 2026-04-27 09:35 | -18.79721 | 47.47602 | 4180 ft | 12 kts | 186° |
| 2026-04-27 09:35 | -18.79794 | 47.47620 | 4180 ft | 11 kts | 130° |
| 2026-04-27 09:35 | -18.79828 | 47.47703 | 4177 ft | 13 kts | 104° |
| 2026-04-27 09:35 | -18.79853 | 47.47798 | 4176 ft | 13 kts | 109° |
| 2026-04-27 09:36 | -18.79901 | 47.47846 | 4176 ft | 7 kts | 185° |
| 2026-04-27 09:36 | -18.79949 | 47.47837 | 4177 ft | 4 kts | 192° |
| 2026-04-27 09:36 | -18.79969 | 47.47833 | 4178 ft | 1 kts | 188° |
| 2026-04-27 09:36 | -18.79972 | 47.47832 | 4178 ft | 0 kts | 189° |
| 2026-04-27 09:37 | -18.79974 | 47.47832 | 4178 ft | 0 kts | 189° |